<?xml version="1.0" encoding="UTF-8" standalone="no" ?>
<gpx xmlns="http://www.topografix.com/GPX/1/1" xmlns:xsi="http://www.w3.org/2001/XMLSchema-instance" xsi:schemaLocation="http://www.topografix.com/GPX/1/1 http://www.topografix.com/GPX/1/1/gpx.xsd" version="1.1" creator="VisuGPX - https://www.visugpx.com">
  <metadata>
    <name>Tour Pléneuf Val André</name>
  </metadata>
  <trk>
    <name><![CDATA[Tracé 9 mai Pleneuf Val André 2021 09:37:33]]></name>
    <extensions>
      <line xmlns="http://www.topografix.com/GPX/gpx_style/0/2">
        <color>0000FF</color>
        <width>4</width>
      </line>
    </extensions>
    <trkseg>
      <trkpt lat="48.59624" lon="-2.53748">
        <ele>37.318420410156</ele>
        <time>2021-05-09T07:37:33Z</time>
      </trkpt>
      <trkpt lat="48.59619" lon="-2.53744">
        <ele>15.395935058594</ele>
        <time>2021-05-09T07:37:40Z</time>
      </trkpt>
      <trkpt lat="48.59627" lon="-2.53747">
        <ele>19.486328125</ele>
        <time>2021-05-09T07:38:13Z</time>
      </trkpt>
      <trkpt lat="48.59634" lon="-2.53753">
        <ele>19.815856933594</ele>
        <time>2021-05-09T07:38:23Z</time>
      </trkpt>
      <trkpt lat="48.59642" lon="-2.53758">
        <ele>20.127563476562</ele>
        <time>2021-05-09T07:38:30Z</time>
      </trkpt>
      <trkpt lat="48.5965" lon="-2.53764">
        <ele>18.849243164062</ele>
        <time>2021-05-09T07:38:39Z</time>
      </trkpt>
      <trkpt lat="48.59658" lon="-2.5377">
        <ele>19.10595703125</ele>
        <time>2021-05-09T07:38:52Z</time>
      </trkpt>
      <trkpt lat="48.59665" lon="-2.53774">
        <ele>18.481384277344</ele>
        <time>2021-05-09T07:39:02Z</time>
      </trkpt>
      <trkpt lat="48.59664" lon="-2.53786">
        <ele>14.226318359375</ele>
        <time>2021-05-09T07:40:10Z</time>
      </trkpt>
      <trkpt lat="48.59656" lon="-2.53789">
        <ele>14.317626953125</ele>
        <time>2021-05-09T07:40:31Z</time>
      </trkpt>
      <trkpt lat="48.59654" lon="-2.53801">
        <ele>18.048950195312</ele>
        <time>2021-05-09T07:40:47Z</time>
      </trkpt>
      <trkpt lat="48.59652" lon="-2.53814">
        <ele>21.579772949219</ele>
        <time>2021-05-09T07:40:57Z</time>
      </trkpt>
      <trkpt lat="48.59652" lon="-2.53827">
        <ele>21.101745605469</ele>
        <time>2021-05-09T07:41:06Z</time>
      </trkpt>
      <trkpt lat="48.59655" lon="-2.53839">
        <ele>20.765747070312</ele>
        <time>2021-05-09T07:41:15Z</time>
      </trkpt>
      <trkpt lat="48.59657" lon="-2.53851">
        <ele>20.573120117188</ele>
        <time>2021-05-09T07:41:22Z</time>
      </trkpt>
      <trkpt lat="48.59659" lon="-2.53863">
        <ele>18.135803222656</ele>
        <time>2021-05-09T07:41:28Z</time>
      </trkpt>
      <trkpt lat="48.59661" lon="-2.53876">
        <ele>20.650756835938</ele>
        <time>2021-05-09T07:41:35Z</time>
      </trkpt>
      <trkpt lat="48.59657" lon="-2.53887">
        <ele>22.793884277344</ele>
        <time>2021-05-09T07:41:41Z</time>
      </trkpt>
      <trkpt lat="48.59655" lon="-2.53899">
        <ele>21.240173339844</ele>
        <time>2021-05-09T07:41:48Z</time>
      </trkpt>
      <trkpt lat="48.59655" lon="-2.5391">
        <ele>22.187438964844</ele>
        <time>2021-05-09T07:41:54Z</time>
      </trkpt>
      <trkpt lat="48.59654" lon="-2.53922">
        <ele>23.599853515625</ele>
        <time>2021-05-09T07:42:01Z</time>
      </trkpt>
      <trkpt lat="48.59654" lon="-2.53934">
        <ele>27.301452636719</ele>
        <time>2021-05-09T07:42:07Z</time>
      </trkpt>
      <trkpt lat="48.59657" lon="-2.53946">
        <ele>29.043395996094</ele>
        <time>2021-05-09T07:42:16Z</time>
      </trkpt>
      <trkpt lat="48.59657" lon="-2.53959">
        <ele>31.624450683594</ele>
        <time>2021-05-09T07:42:27Z</time>
      </trkpt>
      <trkpt lat="48.59652" lon="-2.5397">
        <ele>31.506469726562</ele>
        <time>2021-05-09T07:42:39Z</time>
      </trkpt>
      <trkpt lat="48.59655" lon="-2.53979">
        <ele>29.443481445312</ele>
        <time>2021-05-09T07:42:46Z</time>
      </trkpt>
      <trkpt lat="48.59657" lon="-2.53992">
        <ele>29.708618164062</ele>
        <time>2021-05-09T07:42:54Z</time>
      </trkpt>
      <trkpt lat="48.59664" lon="-2.54">
        <ele>32.725830078125</ele>
        <time>2021-05-09T07:43:04Z</time>
      </trkpt>
      <trkpt lat="48.59668" lon="-2.54011">
        <ele>34.034301757812</ele>
        <time>2021-05-09T07:43:11Z</time>
      </trkpt>
      <trkpt lat="48.59671" lon="-2.54022">
        <ele>31.529296875</ele>
        <time>2021-05-09T07:43:18Z</time>
      </trkpt>
      <trkpt lat="48.59674" lon="-2.54034">
        <ele>27.870422363281</ele>
        <time>2021-05-09T07:43:23Z</time>
      </trkpt>
      <trkpt lat="48.59679" lon="-2.54044">
        <ele>27.850830078125</ele>
        <time>2021-05-09T07:43:29Z</time>
      </trkpt>
      <trkpt lat="48.5968" lon="-2.54056">
        <ele>26.542846679688</ele>
        <time>2021-05-09T07:43:39Z</time>
      </trkpt>
      <trkpt lat="48.59685" lon="-2.54065">
        <ele>29.591857910156</ele>
        <time>2021-05-09T07:43:46Z</time>
      </trkpt>
      <trkpt lat="48.59689" lon="-2.54074">
        <ele>30.57958984375</ele>
        <time>2021-05-09T07:43:51Z</time>
      </trkpt>
      <trkpt lat="48.59692" lon="-2.54085">
        <ele>31.533813476562</ele>
        <time>2021-05-09T07:43:57Z</time>
      </trkpt>
      <trkpt lat="48.59692" lon="-2.54097">
        <ele>33.174438476562</ele>
        <time>2021-05-09T07:44:06Z</time>
      </trkpt>
      <trkpt lat="48.5969" lon="-2.5411">
        <ele>37.185485839844</ele>
        <time>2021-05-09T07:44:17Z</time>
      </trkpt>
      <trkpt lat="48.59692" lon="-2.54122">
        <ele>39.200317382812</ele>
        <time>2021-05-09T07:44:36Z</time>
      </trkpt>
      <trkpt lat="48.5969" lon="-2.54134">
        <ele>39.161071777344</ele>
        <time>2021-05-09T07:44:44Z</time>
      </trkpt>
      <trkpt lat="48.59695" lon="-2.54145">
        <ele>39.704162597656</ele>
        <time>2021-05-09T07:44:53Z</time>
      </trkpt>
      <trkpt lat="48.59692" lon="-2.54157">
        <ele>43.352416992188</ele>
        <time>2021-05-09T07:45:10Z</time>
      </trkpt>
      <trkpt lat="48.59689" lon="-2.5417">
        <ele>45.187133789062</ele>
        <time>2021-05-09T07:45:22Z</time>
      </trkpt>
      <trkpt lat="48.59684" lon="-2.5418">
        <ele>53.828369140625</ele>
        <time>2021-05-09T07:45:56Z</time>
      </trkpt>
      <trkpt lat="48.59683" lon="-2.54193">
        <ele>56.454223632812</ele>
        <time>2021-05-09T07:46:04Z</time>
      </trkpt>
      <trkpt lat="48.59682" lon="-2.54206">
        <ele>54.878601074219</ele>
        <time>2021-05-09T07:46:16Z</time>
      </trkpt>
      <trkpt lat="48.59681" lon="-2.54218">
        <ele>60.893249511719</ele>
        <time>2021-05-09T07:47:59Z</time>
      </trkpt>
      <trkpt lat="48.59682" lon="-2.5423">
        <ele>61.63623046875</ele>
        <time>2021-05-09T07:48:06Z</time>
      </trkpt>
      <trkpt lat="48.59686" lon="-2.54241">
        <ele>63.091674804688</ele>
        <time>2021-05-09T07:48:14Z</time>
      </trkpt>
      <trkpt lat="48.59688" lon="-2.54253">
        <ele>60.912231445312</ele>
        <time>2021-05-09T07:48:23Z</time>
      </trkpt>
      <trkpt lat="48.59693" lon="-2.54264">
        <ele>63.975036621094</ele>
        <time>2021-05-09T07:48:35Z</time>
      </trkpt>
      <trkpt lat="48.59695" lon="-2.54277">
        <ele>64.228149414062</ele>
        <time>2021-05-09T07:48:44Z</time>
      </trkpt>
      <trkpt lat="48.59696" lon="-2.5429">
        <ele>66.112426757812</ele>
        <time>2021-05-09T07:49:16Z</time>
      </trkpt>
      <trkpt lat="48.597" lon="-2.54302">
        <ele>65.042358398438</ele>
        <time>2021-05-09T07:49:23Z</time>
      </trkpt>
      <trkpt lat="48.59702" lon="-2.54313">
        <ele>64.842224121094</ele>
        <time>2021-05-09T07:49:29Z</time>
      </trkpt>
      <trkpt lat="48.59703" lon="-2.54325">
        <ele>61.856506347656</ele>
        <time>2021-05-09T07:49:37Z</time>
      </trkpt>
      <trkpt lat="48.59703" lon="-2.54338">
        <ele>59.666259765625</ele>
        <time>2021-05-09T07:50:15Z</time>
      </trkpt>
      <trkpt lat="48.59704" lon="-2.54351">
        <ele>59.768981933594</ele>
        <time>2021-05-09T07:50:23Z</time>
      </trkpt>
      <trkpt lat="48.59705" lon="-2.54364">
        <ele>63.813293457031</ele>
        <time>2021-05-09T07:50:31Z</time>
      </trkpt>
      <trkpt lat="48.59705" lon="-2.54379">
        <ele>52.3</ele>
      </trkpt>
      <trkpt lat="48.59711" lon="-2.54396">
        <ele>51.5</ele>
        <time>2021-05-09T07:50:44Z</time>
      </trkpt>
      <trkpt lat="48.59715" lon="-2.5441">
        <ele>51.2</ele>
        <time>2021-05-09T07:50:56Z</time>
      </trkpt>
      <trkpt lat="48.59719" lon="-2.5445">
        <ele>51.4</ele>
      </trkpt>
      <trkpt lat="48.59729" lon="-2.54475">
        <ele>49.8</ele>
      </trkpt>
      <trkpt lat="48.59737" lon="-2.54551">
        <ele>47.5</ele>
      </trkpt>
      <trkpt lat="48.59744" lon="-2.54616">
        <ele>42.6</ele>
      </trkpt>
      <trkpt lat="48.59745" lon="-2.54662">
        <ele>38.2</ele>
      </trkpt>
      <trkpt lat="48.5974" lon="-2.54684">
        <ele>37.4</ele>
      </trkpt>
      <trkpt lat="48.59727" lon="-2.54749">
        <ele>35.6</ele>
      </trkpt>
      <trkpt lat="48.59725" lon="-2.54769">
        <ele>36.6</ele>
      </trkpt>
      <trkpt lat="48.59737" lon="-2.54806">
        <ele>36.7</ele>
      </trkpt>
      <trkpt lat="48.59746" lon="-2.54818">
        <ele>36.4</ele>
      </trkpt>
      <trkpt lat="48.59754" lon="-2.54837">
        <ele>35.8</ele>
      </trkpt>
      <trkpt lat="48.59763" lon="-2.54838">
        <ele>32.5</ele>
      </trkpt>
      <trkpt lat="48.59774" lon="-2.54851">
        <ele>29.5</ele>
      </trkpt>
      <trkpt lat="48.59795" lon="-2.54868">
        <ele>23.2</ele>
      </trkpt>
      <trkpt lat="48.598" lon="-2.54878">
        <ele>22.3</ele>
      </trkpt>
      <trkpt lat="48.59805" lon="-2.54898">
        <ele>22.2</ele>
      </trkpt>
      <trkpt lat="48.59807" lon="-2.5492">
        <ele>23.4</ele>
      </trkpt>
      <trkpt lat="48.59819" lon="-2.54933">
        <ele>21.6</ele>
      </trkpt>
      <trkpt lat="48.59831" lon="-2.54968">
        <ele>23.6</ele>
      </trkpt>
      <trkpt lat="48.59837" lon="-2.54975">
        <ele>24.1</ele>
      </trkpt>
      <trkpt lat="48.5985" lon="-2.54993">
        <ele>26.8</ele>
      </trkpt>
      <trkpt lat="48.59851" lon="-2.55016">
        <ele>28.4</ele>
      </trkpt>
      <trkpt lat="48.59856" lon="-2.5506">
        <ele>28.2</ele>
      </trkpt>
      <trkpt lat="48.59878" lon="-2.55096">
        <ele>20.7</ele>
      </trkpt>
      <trkpt lat="48.59867" lon="-2.55136">
        <ele>27.3</ele>
      </trkpt>
      <trkpt lat="48.59869" lon="-2.55184">
        <ele>30</ele>
      </trkpt>
      <trkpt lat="48.59874" lon="-2.55213">
        <ele>31</ele>
      </trkpt>
      <trkpt lat="48.59888" lon="-2.55273">
        <ele>30.2</ele>
      </trkpt>
      <trkpt lat="48.59898" lon="-2.55284">
        <ele>27.2</ele>
      </trkpt>
      <trkpt lat="48.59909" lon="-2.55291">
        <ele>24.1</ele>
      </trkpt>
      <trkpt lat="48.59917" lon="-2.55295">
        <ele>21.7</ele>
      </trkpt>
      <trkpt lat="48.59921" lon="-2.55313">
        <ele>21.7</ele>
      </trkpt>
      <trkpt lat="48.59912" lon="-2.55327">
        <ele>24.9</ele>
      </trkpt>
      <trkpt lat="48.5991" lon="-2.55363">
        <ele>19.5</ele>
      </trkpt>
      <trkpt lat="48.59886" lon="-2.55383">
        <ele>20.7</ele>
      </trkpt>
      <trkpt lat="48.59877" lon="-2.55387">
        <ele>21.6</ele>
      </trkpt>
      <trkpt lat="48.59848" lon="-2.55392">
        <ele>26.2</ele>
      </trkpt>
      <trkpt lat="48.59835" lon="-2.55413">
        <ele>22</ele>
        <time>2021-05-09T07:51:07Z</time>
      </trkpt>
      <trkpt lat="48.59847" lon="-2.55392">
        <ele>26.7</ele>
      </trkpt>
      <trkpt lat="48.59872" lon="-2.55383">
        <ele>23.7</ele>
      </trkpt>
      <trkpt lat="48.59886" lon="-2.55379">
        <ele>21.6</ele>
      </trkpt>
      <trkpt lat="48.59911" lon="-2.55361">
        <ele>19.8</ele>
      </trkpt>
      <trkpt lat="48.5991" lon="-2.5533">
        <ele>25.7</ele>
      </trkpt>
      <trkpt lat="48.59917" lon="-2.55313">
        <ele>22.6</ele>
      </trkpt>
      <trkpt lat="48.59916" lon="-2.55299">
        <ele>22.2</ele>
      </trkpt>
      <trkpt lat="48.59908" lon="-2.55291">
        <ele>24.2</ele>
      </trkpt>
      <trkpt lat="48.59897" lon="-2.55282">
        <ele>27.7</ele>
      </trkpt>
      <trkpt lat="48.59887" lon="-2.55272">
        <ele>30.6</ele>
      </trkpt>
      <trkpt lat="48.59876" lon="-2.55236">
        <ele>32.4</ele>
      </trkpt>
      <trkpt lat="48.59872" lon="-2.55213">
        <ele>31.5</ele>
      </trkpt>
      <trkpt lat="48.59869" lon="-2.55183">
        <ele>30.1</ele>
      </trkpt>
      <trkpt lat="48.59867" lon="-2.55159">
        <ele>28.9</ele>
      </trkpt>
      <trkpt lat="48.59864" lon="-2.55134">
        <ele>28.4</ele>
      </trkpt>
      <trkpt lat="48.59873" lon="-2.55106">
        <ele>23.3</ele>
      </trkpt>
      <trkpt lat="48.59876" lon="-2.55087">
        <ele>20.9</ele>
      </trkpt>
      <trkpt lat="48.59855" lon="-2.55057">
        <ele>28.6</ele>
      </trkpt>
      <trkpt lat="48.59849" lon="-2.55016">
        <ele>28.6</ele>
      </trkpt>
      <trkpt lat="48.59849" lon="-2.54991">
        <ele>26.6</ele>
      </trkpt>
      <trkpt lat="48.59835" lon="-2.54976">
        <ele>24.2</ele>
      </trkpt>
      <trkpt lat="48.5983" lon="-2.54967">
        <ele>23.6</ele>
      </trkpt>
      <trkpt lat="48.59818" lon="-2.5493">
        <ele>21.4</ele>
      </trkpt>
      <trkpt lat="48.59803" lon="-2.54896">
        <ele>22.9</ele>
      </trkpt>
      <trkpt lat="48.598" lon="-2.54876">
        <ele>22.2</ele>
      </trkpt>
      <trkpt lat="48.59796" lon="-2.54867">
        <ele>22.9</ele>
      </trkpt>
      <trkpt lat="48.59772" lon="-2.54847">
        <ele>30</ele>
      </trkpt>
      <trkpt lat="48.59762" lon="-2.54838">
        <ele>33</ele>
      </trkpt>
      <trkpt lat="48.59752" lon="-2.54838">
        <ele>36.5</ele>
      </trkpt>
      <trkpt lat="48.59746" lon="-2.54818">
        <ele>36.4</ele>
      </trkpt>
      <trkpt lat="48.59735" lon="-2.54804">
        <ele>36.8</ele>
      </trkpt>
      <trkpt lat="48.59725" lon="-2.54771">
        <ele>36.8</ele>
      </trkpt>
      <trkpt lat="48.59727" lon="-2.54747">
        <ele>35.7</ele>
      </trkpt>
      <trkpt lat="48.59744" lon="-2.5466">
        <ele>38.6</ele>
      </trkpt>
      <trkpt lat="48.59743" lon="-2.54617">
        <ele>42.7</ele>
      </trkpt>
      <trkpt lat="48.59735" lon="-2.54552">
        <ele>47.7</ele>
      </trkpt>
      <trkpt lat="48.59729" lon="-2.54476">
        <ele>49.8</ele>
      </trkpt>
      <trkpt lat="48.59718" lon="-2.54447">
        <ele>51.7</ele>
      </trkpt>
      <trkpt lat="48.5971" lon="-2.54397">
        <ele>51.9</ele>
        <time>2021-05-09T07:51:42Z</time>
      </trkpt>
      <trkpt lat="48.59704" lon="-2.5438">
        <ele>52.9</ele>
        <time>2021-05-09T07:51:51Z</time>
      </trkpt>
      <trkpt lat="48.59702" lon="-2.54367">
        <ele>68.958068847656</ele>
        <time>2021-05-09T07:52:01Z</time>
      </trkpt>
      <trkpt lat="48.59702" lon="-2.54354">
        <ele>65.01318359375</ele>
        <time>2021-05-09T07:52:10Z</time>
      </trkpt>
      <trkpt lat="48.59704" lon="-2.54341">
        <ele>67.262390136719</ele>
        <time>2021-05-09T07:52:15Z</time>
      </trkpt>
      <trkpt lat="48.59704" lon="-2.5433">
        <ele>63.577453613281</ele>
        <time>2021-05-09T07:52:23Z</time>
      </trkpt>
      <trkpt lat="48.59703" lon="-2.54314">
        <ele>63.981567382812</ele>
        <time>2021-05-09T07:52:28Z</time>
      </trkpt>
      <trkpt lat="48.597" lon="-2.54302">
        <ele>60.536254882812</ele>
        <time>2021-05-09T07:52:36Z</time>
      </trkpt>
      <trkpt lat="48.59698" lon="-2.54291">
        <ele>60.482055664062</ele>
        <time>2021-05-09T07:52:41Z</time>
      </trkpt>
      <trkpt lat="48.59695" lon="-2.5428">
        <ele>63.40673828125</ele>
        <time>2021-05-09T07:52:48Z</time>
      </trkpt>
      <trkpt lat="48.5969" lon="-2.5427">
        <ele>65.259887695312</ele>
        <time>2021-05-09T07:52:54Z</time>
      </trkpt>
      <trkpt lat="48.59687" lon="-2.54258">
        <ele>64.290832519531</ele>
        <time>2021-05-09T07:53:03Z</time>
      </trkpt>
      <trkpt lat="48.59685" lon="-2.54245">
        <ele>63.301635742188</ele>
        <time>2021-05-09T07:53:11Z</time>
      </trkpt>
      <trkpt lat="48.59683" lon="-2.54232">
        <ele>60.374389648438</ele>
        <time>2021-05-09T07:53:18Z</time>
      </trkpt>
      <trkpt lat="48.5968" lon="-2.54219">
        <ele>61.88232421875</ele>
        <time>2021-05-09T07:53:26Z</time>
      </trkpt>
      <trkpt lat="48.59676" lon="-2.54209">
        <ele>61.655151367188</ele>
        <time>2021-05-09T07:53:34Z</time>
      </trkpt>
      <trkpt lat="48.59674" lon="-2.54199">
        <ele>61.72265625</ele>
        <time>2021-05-09T07:53:38Z</time>
      </trkpt>
      <trkpt lat="48.59671" lon="-2.54187">
        <ele>60.625183105469</ele>
        <time>2021-05-09T07:53:45Z</time>
      </trkpt>
      <trkpt lat="48.59664" lon="-2.54179">
        <ele>62.370483398438</ele>
        <time>2021-05-09T07:53:52Z</time>
      </trkpt>
      <trkpt lat="48.59657" lon="-2.54173">
        <ele>57.989990234375</ele>
        <time>2021-05-09T07:54:04Z</time>
      </trkpt>
      <trkpt lat="48.59651" lon="-2.54181">
        <ele>56.681091308594</ele>
        <time>2021-05-09T07:54:11Z</time>
      </trkpt>
      <trkpt lat="48.59643" lon="-2.54188">
        <ele>54.416625976562</ele>
        <time>2021-05-09T07:54:22Z</time>
      </trkpt>
      <trkpt lat="48.59635" lon="-2.54191">
        <ele>53.024841308594</ele>
        <time>2021-05-09T07:54:28Z</time>
      </trkpt>
      <trkpt lat="48.59626" lon="-2.54192">
        <ele>54.82080078125</ele>
        <time>2021-05-09T07:54:33Z</time>
      </trkpt>
      <trkpt lat="48.59618" lon="-2.54193">
        <ele>51.061279296875</ele>
        <time>2021-05-09T07:54:39Z</time>
      </trkpt>
      <trkpt lat="48.5961" lon="-2.54194">
        <ele>52.165283203125</ele>
        <time>2021-05-09T07:54:47Z</time>
      </trkpt>
      <trkpt lat="48.59601" lon="-2.54193">
        <ele>55.014953613281</ele>
        <time>2021-05-09T07:54:55Z</time>
      </trkpt>
      <trkpt lat="48.59593" lon="-2.54196">
        <ele>54.78173828125</ele>
        <time>2021-05-09T07:55:05Z</time>
      </trkpt>
      <trkpt lat="48.59585" lon="-2.54191">
        <ele>53.329467773438</ele>
        <time>2021-05-09T07:55:13Z</time>
      </trkpt>
      <trkpt lat="48.59577" lon="-2.54186">
        <ele>58.089477539062</ele>
        <time>2021-05-09T07:55:20Z</time>
      </trkpt>
      <trkpt lat="48.5957" lon="-2.5418">
        <ele>60.411987304688</ele>
        <time>2021-05-09T07:55:27Z</time>
      </trkpt>
      <trkpt lat="48.59563" lon="-2.54174">
        <ele>59.907836914062</ele>
        <time>2021-05-09T07:55:36Z</time>
      </trkpt>
      <trkpt lat="48.59555" lon="-2.54169">
        <ele>59.844360351562</ele>
        <time>2021-05-09T07:55:42Z</time>
      </trkpt>
      <trkpt lat="48.59548" lon="-2.5416">
        <ele>61.485229492188</ele>
        <time>2021-05-09T07:55:49Z</time>
      </trkpt>
      <trkpt lat="48.59543" lon="-2.54152">
        <ele>62.684509277344</ele>
        <time>2021-05-09T07:55:54Z</time>
      </trkpt>
      <trkpt lat="48.59537" lon="-2.54144">
        <ele>63.071899414062</ele>
        <time>2021-05-09T07:56:00Z</time>
      </trkpt>
      <trkpt lat="48.59529" lon="-2.54138">
        <ele>62.982421875</ele>
        <time>2021-05-09T07:56:07Z</time>
      </trkpt>
      <trkpt lat="48.59523" lon="-2.54129">
        <ele>61.053588867188</ele>
        <time>2021-05-09T07:56:13Z</time>
      </trkpt>
      <trkpt lat="48.59516" lon="-2.54123">
        <ele>57.803588867188</ele>
        <time>2021-05-09T07:56:21Z</time>
      </trkpt>
      <trkpt lat="48.59509" lon="-2.54115">
        <ele>52.928466796875</ele>
        <time>2021-05-09T07:56:30Z</time>
      </trkpt>
      <trkpt lat="48.59501" lon="-2.54108">
        <ele>55.869140625</ele>
        <time>2021-05-09T07:56:37Z</time>
      </trkpt>
      <trkpt lat="48.59494" lon="-2.54099">
        <ele>56.870910644531</ele>
        <time>2021-05-09T07:56:49Z</time>
      </trkpt>
      <trkpt lat="48.59487" lon="-2.54092">
        <ele>54.549072265625</ele>
        <time>2021-05-09T07:56:58Z</time>
      </trkpt>
      <trkpt lat="48.59482" lon="-2.54084">
        <ele>54.068542480469</ele>
        <time>2021-05-09T07:57:06Z</time>
      </trkpt>
      <trkpt lat="48.59475" lon="-2.54075">
        <ele>54.546508789062</ele>
        <time>2021-05-09T07:57:13Z</time>
      </trkpt>
      <trkpt lat="48.5947" lon="-2.54064">
        <ele>54.688354492188</ele>
        <time>2021-05-09T07:57:20Z</time>
      </trkpt>
      <trkpt lat="48.59462" lon="-2.54058">
        <ele>53.589904785156</ele>
        <time>2021-05-09T07:57:32Z</time>
      </trkpt>
      <trkpt lat="48.5946" lon="-2.54045">
        <ele>52.682189941406</ele>
        <time>2021-05-09T07:57:40Z</time>
      </trkpt>
      <trkpt lat="48.59463" lon="-2.54034">
        <ele>50.916442871094</ele>
        <time>2021-05-09T07:57:48Z</time>
      </trkpt>
      <trkpt lat="48.59462" lon="-2.54022">
        <ele>51.037475585938</ele>
        <time>2021-05-09T07:57:55Z</time>
      </trkpt>
      <trkpt lat="48.59461" lon="-2.54009">
        <ele>49.725463867188</ele>
        <time>2021-05-09T07:58:03Z</time>
      </trkpt>
      <trkpt lat="48.59462" lon="-2.53996">
        <ele>49.048645019531</ele>
        <time>2021-05-09T07:58:10Z</time>
      </trkpt>
      <trkpt lat="48.59465" lon="-2.53984">
        <ele>47.1142578125</ele>
        <time>2021-05-09T07:58:17Z</time>
      </trkpt>
      <trkpt lat="48.59465" lon="-2.53971">
        <ele>46.809814453125</ele>
        <time>2021-05-09T07:58:24Z</time>
      </trkpt>
      <trkpt lat="48.59463" lon="-2.53959">
        <ele>49.423034667969</ele>
        <time>2021-05-09T07:58:29Z</time>
      </trkpt>
      <trkpt lat="48.59462" lon="-2.53945">
        <ele>48.092468261719</ele>
        <time>2021-05-09T07:58:37Z</time>
      </trkpt>
      <trkpt lat="48.59458" lon="-2.53936">
        <ele>46.021362304688</ele>
        <time>2021-05-09T07:58:46Z</time>
      </trkpt>
      <trkpt lat="48.59455" lon="-2.53923">
        <ele>45.845153808594</ele>
        <time>2021-05-09T07:58:54Z</time>
      </trkpt>
      <trkpt lat="48.59455" lon="-2.53911">
        <ele>45.451843261719</ele>
        <time>2021-05-09T07:59:00Z</time>
      </trkpt>
      <trkpt lat="48.59457" lon="-2.53899">
        <ele>47.856018066406</ele>
        <time>2021-05-09T07:59:05Z</time>
      </trkpt>
      <trkpt lat="48.59459" lon="-2.53888">
        <ele>45.503784179688</ele>
        <time>2021-05-09T07:59:11Z</time>
      </trkpt>
      <trkpt lat="48.59458" lon="-2.53875">
        <ele>45.171875</ele>
        <time>2021-05-09T07:59:20Z</time>
      </trkpt>
      <trkpt lat="48.59458" lon="-2.53862">
        <ele>41.177307128906</ele>
        <time>2021-05-09T07:59:27Z</time>
      </trkpt>
      <trkpt lat="48.59459" lon="-2.5385">
        <ele>40.926574707031</ele>
        <time>2021-05-09T07:59:33Z</time>
      </trkpt>
      <trkpt lat="48.59462" lon="-2.53838">
        <ele>39.067993164062</ele>
        <time>2021-05-09T07:59:41Z</time>
      </trkpt>
      <trkpt lat="48.59465" lon="-2.53826">
        <ele>40.150268554688</ele>
        <time>2021-05-09T07:59:48Z</time>
      </trkpt>
      <trkpt lat="48.59471" lon="-2.53816">
        <ele>36.297729492188</ele>
        <time>2021-05-09T07:59:56Z</time>
      </trkpt>
      <trkpt lat="48.59471" lon="-2.53802">
        <ele>33.631286621094</ele>
        <time>2021-05-09T08:00:06Z</time>
      </trkpt>
      <trkpt lat="48.59475" lon="-2.53792">
        <ele>34.255798339844</ele>
        <time>2021-05-09T08:02:14Z</time>
      </trkpt>
      <trkpt lat="48.59479" lon="-2.5378">
        <ele>31.3935546875</ele>
        <time>2021-05-09T08:02:23Z</time>
      </trkpt>
      <trkpt lat="48.59483" lon="-2.53769">
        <ele>29.194152832031</ele>
        <time>2021-05-09T08:02:31Z</time>
      </trkpt>
      <trkpt lat="48.59483" lon="-2.53756">
        <ele>29.518981933594</ele>
        <time>2021-05-09T08:02:40Z</time>
      </trkpt>
      <trkpt lat="48.59478" lon="-2.53747">
        <ele>24.118469238281</ele>
        <time>2021-05-09T08:02:59Z</time>
      </trkpt>
      <trkpt lat="48.5947" lon="-2.53745">
        <ele>26.387451171875</ele>
        <time>2021-05-09T08:03:05Z</time>
      </trkpt>
      <trkpt lat="48.59462" lon="-2.53748">
        <ele>25.622619628906</ele>
        <time>2021-05-09T08:03:11Z</time>
      </trkpt>
      <trkpt lat="48.59455" lon="-2.53749">
        <ele>26.865600585938</ele>
        <time>2021-05-09T08:03:18Z</time>
      </trkpt>
      <trkpt lat="48.59446" lon="-2.5375">
        <ele>29.71142578125</ele>
        <time>2021-05-09T08:03:23Z</time>
      </trkpt>
      <trkpt lat="48.59438" lon="-2.53751">
        <ele>29.29248046875</ele>
        <time>2021-05-09T08:03:29Z</time>
      </trkpt>
      <trkpt lat="48.5943" lon="-2.53755">
        <ele>30.125915527344</ele>
        <time>2021-05-09T08:03:36Z</time>
      </trkpt>
      <trkpt lat="48.59422" lon="-2.53759">
        <ele>32.495483398438</ele>
        <time>2021-05-09T08:03:43Z</time>
      </trkpt>
      <trkpt lat="48.59417" lon="-2.53766">
        <ele>32.8115234375</ele>
        <time>2021-05-09T08:03:47Z</time>
      </trkpt>
      <trkpt lat="48.59409" lon="-2.53772">
        <ele>33.05712890625</ele>
        <time>2021-05-09T08:03:54Z</time>
      </trkpt>
      <trkpt lat="48.59401" lon="-2.53774">
        <ele>32.270568847656</ele>
        <time>2021-05-09T08:04:02Z</time>
      </trkpt>
      <trkpt lat="48.59393" lon="-2.53774">
        <ele>32.222534179688</ele>
        <time>2021-05-09T08:04:08Z</time>
      </trkpt>
      <trkpt lat="48.59386" lon="-2.53767">
        <ele>33.505676269531</ele>
        <time>2021-05-09T08:04:14Z</time>
      </trkpt>
      <trkpt lat="48.59379" lon="-2.53762">
        <ele>33.411071777344</ele>
        <time>2021-05-09T08:04:19Z</time>
      </trkpt>
      <trkpt lat="48.5937" lon="-2.53764">
        <ele>30.878479003906</ele>
        <time>2021-05-09T08:04:28Z</time>
      </trkpt>
      <trkpt lat="48.59362" lon="-2.53763">
        <ele>32.874328613281</ele>
        <time>2021-05-09T08:04:37Z</time>
      </trkpt>
      <trkpt lat="48.59355" lon="-2.53757">
        <ele>33.672729492188</ele>
        <time>2021-05-09T08:04:43Z</time>
      </trkpt>
      <trkpt lat="48.59347" lon="-2.53753">
        <ele>36.955322265625</ele>
        <time>2021-05-09T08:04:48Z</time>
      </trkpt>
      <trkpt lat="48.59339" lon="-2.53751">
        <ele>38.609008789062</ele>
        <time>2021-05-09T08:04:54Z</time>
      </trkpt>
      <trkpt lat="48.59331" lon="-2.5375">
        <ele>41.842346191406</ele>
        <time>2021-05-09T08:05:01Z</time>
      </trkpt>
      <trkpt lat="48.59322" lon="-2.53748">
        <ele>42.462890625</ele>
        <time>2021-05-09T08:05:06Z</time>
      </trkpt>
      <trkpt lat="48.59315" lon="-2.53745">
        <ele>44.637634277344</ele>
        <time>2021-05-09T08:05:12Z</time>
      </trkpt>
      <trkpt lat="48.59307" lon="-2.53744">
        <ele>38.13330078125</ele>
        <time>2021-05-09T08:05:18Z</time>
      </trkpt>
      <trkpt lat="48.593" lon="-2.53736">
        <ele>36.950134277344</ele>
        <time>2021-05-09T08:05:26Z</time>
      </trkpt>
      <trkpt lat="48.59291" lon="-2.53732">
        <ele>33.999389648438</ele>
        <time>2021-05-09T08:05:34Z</time>
      </trkpt>
      <trkpt lat="48.59284" lon="-2.53727">
        <ele>37.878723144531</ele>
        <time>2021-05-09T08:05:40Z</time>
      </trkpt>
      <trkpt lat="48.59275" lon="-2.53726">
        <ele>39.307922363281</ele>
        <time>2021-05-09T08:05:46Z</time>
      </trkpt>
      <trkpt lat="48.59268" lon="-2.53722">
        <ele>40.811889648438</ele>
        <time>2021-05-09T08:05:54Z</time>
      </trkpt>
      <trkpt lat="48.5926" lon="-2.53717">
        <ele>39.1630859375</ele>
        <time>2021-05-09T08:06:01Z</time>
      </trkpt>
      <trkpt lat="48.59252" lon="-2.53717">
        <ele>40.069213867188</ele>
        <time>2021-05-09T08:06:06Z</time>
      </trkpt>
      <trkpt lat="48.59244" lon="-2.53715">
        <ele>37.288696289062</ele>
        <time>2021-05-09T08:06:11Z</time>
      </trkpt>
      <trkpt lat="48.59237" lon="-2.53711">
        <ele>39.323791503906</ele>
        <time>2021-05-09T08:06:17Z</time>
      </trkpt>
      <trkpt lat="48.59229" lon="-2.53709">
        <ele>39.984008789062</ele>
        <time>2021-05-09T08:06:23Z</time>
      </trkpt>
      <trkpt lat="48.59222" lon="-2.53703">
        <ele>36.758483886719</ele>
        <time>2021-05-09T08:06:31Z</time>
      </trkpt>
      <trkpt lat="48.59214" lon="-2.53697">
        <ele>36.418334960938</ele>
        <time>2021-05-09T08:06:37Z</time>
      </trkpt>
      <trkpt lat="48.5921" lon="-2.53689">
        <ele>38.377807617188</ele>
        <time>2021-05-09T08:06:48Z</time>
      </trkpt>
      <trkpt lat="48.59203" lon="-2.53681">
        <ele>38.265441894531</ele>
        <time>2021-05-09T08:06:55Z</time>
      </trkpt>
      <trkpt lat="48.59202" lon="-2.53669">
        <ele>41.707458496094</ele>
        <time>2021-05-09T08:07:02Z</time>
      </trkpt>
      <trkpt lat="48.59197" lon="-2.53659">
        <ele>43.767211914062</ele>
        <time>2021-05-09T08:07:07Z</time>
      </trkpt>
      <trkpt lat="48.59194" lon="-2.53646">
        <ele>36.280639648438</ele>
        <time>2021-05-09T08:07:16Z</time>
      </trkpt>
      <trkpt lat="48.59189" lon="-2.53637">
        <ele>36.412109375</ele>
        <time>2021-05-09T08:07:22Z</time>
      </trkpt>
      <trkpt lat="48.59181" lon="-2.53636">
        <ele>36.96240234375</ele>
        <time>2021-05-09T08:07:26Z</time>
      </trkpt>
      <trkpt lat="48.59172" lon="-2.53633">
        <ele>39.780578613281</ele>
        <time>2021-05-09T08:07:32Z</time>
      </trkpt>
      <trkpt lat="48.59165" lon="-2.53629">
        <ele>44.30224609375</ele>
        <time>2021-05-09T08:07:37Z</time>
      </trkpt>
      <trkpt lat="48.59159" lon="-2.53622">
        <ele>39.641479492188</ele>
        <time>2021-05-09T08:07:43Z</time>
      </trkpt>
      <trkpt lat="48.59152" lon="-2.53613">
        <ele>38.991149902344</ele>
        <time>2021-05-09T08:07:51Z</time>
      </trkpt>
      <trkpt lat="48.59146" lon="-2.53609">
        <ele>40.349548339844</ele>
        <time>2021-05-09T08:07:55Z</time>
      </trkpt>
      <trkpt lat="48.59139" lon="-2.53604">
        <ele>40.786987304688</ele>
        <time>2021-05-09T08:08:00Z</time>
      </trkpt>
      <trkpt lat="48.59131" lon="-2.536">
        <ele>42.322143554688</ele>
        <time>2021-05-09T08:08:08Z</time>
      </trkpt>
      <trkpt lat="48.59122" lon="-2.53596">
        <ele>42.905517578125</ele>
        <time>2021-05-09T08:08:15Z</time>
      </trkpt>
      <trkpt lat="48.59113" lon="-2.53592">
        <ele>42.846435546875</ele>
        <time>2021-05-09T08:08:23Z</time>
      </trkpt>
      <trkpt lat="48.59105" lon="-2.53588">
        <ele>42.284790039062</ele>
        <time>2021-05-09T08:08:31Z</time>
      </trkpt>
      <trkpt lat="48.59099" lon="-2.53581">
        <ele>46.73583984375</ele>
        <time>2021-05-09T08:08:37Z</time>
      </trkpt>
      <trkpt lat="48.59091" lon="-2.53576">
        <ele>47.664489746094</ele>
        <time>2021-05-09T08:08:44Z</time>
      </trkpt>
      <trkpt lat="48.59082" lon="-2.53573">
        <ele>48.001831054688</ele>
        <time>2021-05-09T08:08:50Z</time>
      </trkpt>
      <trkpt lat="48.59074" lon="-2.53568">
        <ele>49.483947753906</ele>
        <time>2021-05-09T08:08:57Z</time>
      </trkpt>
      <trkpt lat="48.59068" lon="-2.53561">
        <ele>48.441467285156</ele>
        <time>2021-05-09T08:09:03Z</time>
      </trkpt>
      <trkpt lat="48.59067" lon="-2.53548">
        <ele>47.847045898438</ele>
        <time>2021-05-09T08:09:13Z</time>
      </trkpt>
      <trkpt lat="48.59067" lon="-2.53535">
        <ele>47.105895996094</ele>
        <time>2021-05-09T08:09:20Z</time>
      </trkpt>
      <trkpt lat="48.59069" lon="-2.53523">
        <ele>48.457641601562</ele>
        <time>2021-05-09T08:09:27Z</time>
      </trkpt>
      <trkpt lat="48.59067" lon="-2.53511">
        <ele>49.568115234375</ele>
        <time>2021-05-09T08:09:40Z</time>
      </trkpt>
      <trkpt lat="48.59061" lon="-2.53504">
        <ele>53.400573730469</ele>
        <time>2021-05-09T08:09:45Z</time>
      </trkpt>
      <trkpt lat="48.59053" lon="-2.53501">
        <ele>50.528442382812</ele>
        <time>2021-05-09T08:09:52Z</time>
      </trkpt>
      <trkpt lat="48.59045" lon="-2.53498">
        <ele>52.463195800781</ele>
        <time>2021-05-09T08:09:59Z</time>
      </trkpt>
      <trkpt lat="48.59037" lon="-2.53496">
        <ele>51.300842285156</ele>
        <time>2021-05-09T08:10:06Z</time>
      </trkpt>
      <trkpt lat="48.59029" lon="-2.53494">
        <ele>53.643371582031</ele>
        <time>2021-05-09T08:10:13Z</time>
      </trkpt>
      <trkpt lat="48.59021" lon="-2.5349">
        <ele>53.72314453125</ele>
        <time>2021-05-09T08:10:20Z</time>
      </trkpt>
      <trkpt lat="48.59014" lon="-2.53485">
        <ele>55.264465332031</ele>
        <time>2021-05-09T08:10:26Z</time>
      </trkpt>
      <trkpt lat="48.59007" lon="-2.53479">
        <ele>56.708435058594</ele>
        <time>2021-05-09T08:10:32Z</time>
      </trkpt>
      <trkpt lat="48.58998" lon="-2.53477">
        <ele>56.144348144531</ele>
        <time>2021-05-09T08:10:39Z</time>
      </trkpt>
      <trkpt lat="48.58993" lon="-2.53465">
        <ele>57.053283691406</ele>
        <time>2021-05-09T08:12:04Z</time>
      </trkpt>
      <trkpt lat="48.58997" lon="-2.53455">
        <ele>55.904113769531</ele>
        <time>2021-05-09T08:12:10Z</time>
      </trkpt>
      <trkpt lat="48.58997" lon="-2.53443">
        <ele>55.403442382812</ele>
        <time>2021-05-09T08:12:16Z</time>
      </trkpt>
      <trkpt lat="48.58999" lon="-2.5343">
        <ele>54.518432617188</ele>
        <time>2021-05-09T08:12:24Z</time>
      </trkpt>
      <trkpt lat="48.59001" lon="-2.53418">
        <ele>55.532287597656</ele>
        <time>2021-05-09T08:12:31Z</time>
      </trkpt>
      <trkpt lat="48.59001" lon="-2.53406">
        <ele>56.000854492188</ele>
        <time>2021-05-09T08:12:38Z</time>
      </trkpt>
      <trkpt lat="48.59" lon="-2.53393">
        <ele>56.499572753906</ele>
        <time>2021-05-09T08:12:45Z</time>
      </trkpt>
      <trkpt lat="48.58998" lon="-2.53381">
        <ele>56.574157714844</ele>
        <time>2021-05-09T08:12:52Z</time>
      </trkpt>
      <trkpt lat="48.58996" lon="-2.5337">
        <ele>57.148803710938</ele>
        <time>2021-05-09T08:12:58Z</time>
      </trkpt>
      <trkpt lat="48.58993" lon="-2.53359">
        <ele>58.835998535156</ele>
        <time>2021-05-09T08:13:07Z</time>
      </trkpt>
      <trkpt lat="48.5899" lon="-2.53347">
        <ele>60.719543457031</ele>
        <time>2021-05-09T08:13:13Z</time>
      </trkpt>
      <trkpt lat="48.58985" lon="-2.53337">
        <ele>60.5595703125</ele>
        <time>2021-05-09T08:13:21Z</time>
      </trkpt>
      <trkpt lat="48.58981" lon="-2.53327">
        <ele>61.637756347656</ele>
        <time>2021-05-09T08:13:28Z</time>
      </trkpt>
      <trkpt lat="48.58977" lon="-2.53315">
        <ele>61.425720214844</ele>
        <time>2021-05-09T08:13:37Z</time>
      </trkpt>
      <trkpt lat="48.58975" lon="-2.53303">
        <ele>64.71044921875</ele>
        <time>2021-05-09T08:13:42Z</time>
      </trkpt>
      <trkpt lat="48.58975" lon="-2.53291">
        <ele>65.306396484375</ele>
        <time>2021-05-09T08:13:52Z</time>
      </trkpt>
      <trkpt lat="48.5897" lon="-2.53279">
        <ele>67.816345214844</ele>
        <time>2021-05-09T08:13:58Z</time>
      </trkpt>
      <trkpt lat="48.58966" lon="-2.53269">
        <ele>68.182983398438</ele>
        <time>2021-05-09T08:14:04Z</time>
      </trkpt>
      <trkpt lat="48.58961" lon="-2.53258">
        <ele>66.232238769531</ele>
        <time>2021-05-09T08:14:11Z</time>
      </trkpt>
      <trkpt lat="48.58957" lon="-2.53247">
        <ele>63.824829101562</ele>
        <time>2021-05-09T08:14:19Z</time>
      </trkpt>
      <trkpt lat="48.58951" lon="-2.53238">
        <ele>67.303649902344</ele>
        <time>2021-05-09T08:14:26Z</time>
      </trkpt>
      <trkpt lat="48.58948" lon="-2.53227">
        <ele>67.765441894531</ele>
        <time>2021-05-09T08:14:33Z</time>
      </trkpt>
      <trkpt lat="48.58951" lon="-2.53215">
        <ele>66.025756835938</ele>
        <time>2021-05-09T08:14:40Z</time>
      </trkpt>
      <trkpt lat="48.58956" lon="-2.53205">
        <ele>66.192749023438</ele>
        <time>2021-05-09T08:14:47Z</time>
      </trkpt>
      <trkpt lat="48.5896" lon="-2.53195">
        <ele>66.087707519531</ele>
        <time>2021-05-09T08:14:53Z</time>
      </trkpt>
      <trkpt lat="48.58962" lon="-2.53184">
        <ele>66.036437988281</ele>
        <time>2021-05-09T08:15:00Z</time>
      </trkpt>
      <trkpt lat="48.58967" lon="-2.53172">
        <ele>67.53466796875</ele>
        <time>2021-05-09T08:15:07Z</time>
      </trkpt>
      <trkpt lat="48.58971" lon="-2.53161">
        <ele>66.717468261719</ele>
        <time>2021-05-09T08:15:12Z</time>
      </trkpt>
      <trkpt lat="48.58974" lon="-2.53149">
        <ele>65.733032226562</ele>
        <time>2021-05-09T08:15:20Z</time>
      </trkpt>
      <trkpt lat="48.5898" lon="-2.5314">
        <ele>65.605895996094</ele>
        <time>2021-05-09T08:15:27Z</time>
      </trkpt>
      <trkpt lat="48.58984" lon="-2.53128">
        <ele>67.749755859375</ele>
        <time>2021-05-09T08:15:33Z</time>
      </trkpt>
      <trkpt lat="48.58987" lon="-2.53119">
        <ele>66.149291992188</ele>
        <time>2021-05-09T08:15:39Z</time>
      </trkpt>
      <trkpt lat="48.58993" lon="-2.53109">
        <ele>67.132385253906</ele>
        <time>2021-05-09T08:15:46Z</time>
      </trkpt>
      <trkpt lat="48.58999" lon="-2.531">
        <ele>68.659423828125</ele>
        <time>2021-05-09T08:15:52Z</time>
      </trkpt>
      <trkpt lat="48.59005" lon="-2.5309">
        <ele>70.277526855469</ele>
        <time>2021-05-09T08:15:57Z</time>
      </trkpt>
      <trkpt lat="48.59008" lon="-2.53078">
        <ele>68.166015625</ele>
        <time>2021-05-09T08:16:04Z</time>
      </trkpt>
      <trkpt lat="48.59012" lon="-2.53069">
        <ele>70.720520019531</ele>
        <time>2021-05-09T08:16:10Z</time>
      </trkpt>
      <trkpt lat="48.59016" lon="-2.53056">
        <ele>66.44287109375</ele>
        <time>2021-05-09T08:16:18Z</time>
      </trkpt>
      <trkpt lat="48.5902" lon="-2.53044">
        <ele>66.375610351562</ele>
        <time>2021-05-09T08:16:26Z</time>
      </trkpt>
      <trkpt lat="48.59025" lon="-2.53034">
        <ele>67.34033203125</ele>
        <time>2021-05-09T08:16:33Z</time>
      </trkpt>
      <trkpt lat="48.59029" lon="-2.53022">
        <ele>67.439880371094</ele>
        <time>2021-05-09T08:16:40Z</time>
      </trkpt>
      <trkpt lat="48.59032" lon="-2.5301">
        <ele>67.454711914062</ele>
        <time>2021-05-09T08:16:46Z</time>
      </trkpt>
      <trkpt lat="48.59036" lon="-2.53">
        <ele>67.370666503906</ele>
        <time>2021-05-09T08:16:52Z</time>
      </trkpt>
      <trkpt lat="48.59041" lon="-2.5299">
        <ele>69.258911132812</ele>
        <time>2021-05-09T08:16:59Z</time>
      </trkpt>
      <trkpt lat="48.59046" lon="-2.52979">
        <ele>70.343017578125</ele>
        <time>2021-05-09T08:17:06Z</time>
      </trkpt>
      <trkpt lat="48.5905" lon="-2.52968">
        <ele>71.113708496094</ele>
        <time>2021-05-09T08:17:11Z</time>
      </trkpt>
      <trkpt lat="48.59055" lon="-2.5296">
        <ele>70.791015625</ele>
        <time>2021-05-09T08:17:18Z</time>
      </trkpt>
      <trkpt lat="48.59061" lon="-2.52951">
        <ele>68.855041503906</ele>
        <time>2021-05-09T08:17:25Z</time>
      </trkpt>
      <trkpt lat="48.59065" lon="-2.52941">
        <ele>69.435424804688</ele>
        <time>2021-05-09T08:17:32Z</time>
      </trkpt>
      <trkpt lat="48.5907" lon="-2.52931">
        <ele>69.60498046875</ele>
        <time>2021-05-09T08:17:37Z</time>
      </trkpt>
      <trkpt lat="48.59074" lon="-2.52921">
        <ele>66.767944335938</ele>
        <time>2021-05-09T08:17:45Z</time>
      </trkpt>
      <trkpt lat="48.59079" lon="-2.52911">
        <ele>66.803344726562</ele>
        <time>2021-05-09T08:17:52Z</time>
      </trkpt>
      <trkpt lat="48.59084" lon="-2.529">
        <ele>66.615661621094</ele>
        <time>2021-05-09T08:17:57Z</time>
      </trkpt>
      <trkpt lat="48.59088" lon="-2.52891">
        <ele>66.121154785156</ele>
        <time>2021-05-09T08:18:04Z</time>
      </trkpt>
      <trkpt lat="48.59093" lon="-2.52881">
        <ele>63.594543457031</ele>
        <time>2021-05-09T08:18:11Z</time>
      </trkpt>
      <trkpt lat="48.59098" lon="-2.5287">
        <ele>64.370056152344</ele>
        <time>2021-05-09T08:18:18Z</time>
      </trkpt>
      <trkpt lat="48.59102" lon="-2.52859">
        <ele>61.82958984375</ele>
        <time>2021-05-09T08:18:26Z</time>
      </trkpt>
      <trkpt lat="48.59108" lon="-2.5285">
        <ele>62.865295410156</ele>
        <time>2021-05-09T08:18:33Z</time>
      </trkpt>
      <trkpt lat="48.59111" lon="-2.52837">
        <ele>63.029602050781</ele>
        <time>2021-05-09T08:18:41Z</time>
      </trkpt>
      <trkpt lat="48.59109" lon="-2.52825">
        <ele>64.132873535156</ele>
        <time>2021-05-09T08:18:48Z</time>
      </trkpt>
      <trkpt lat="48.59108" lon="-2.52813">
        <ele>64.934936523438</ele>
        <time>2021-05-09T08:18:54Z</time>
      </trkpt>
      <trkpt lat="48.59109" lon="-2.528">
        <ele>66.056823730469</ele>
        <time>2021-05-09T08:19:01Z</time>
      </trkpt>
      <trkpt lat="48.59108" lon="-2.52787">
        <ele>62.434326171875</ele>
        <time>2021-05-09T08:19:09Z</time>
      </trkpt>
      <trkpt lat="48.59107" lon="-2.52774">
        <ele>62.023498535156</ele>
        <time>2021-05-09T08:19:17Z</time>
      </trkpt>
      <trkpt lat="48.59107" lon="-2.52761">
        <ele>61.12744140625</ele>
        <time>2021-05-09T08:19:26Z</time>
      </trkpt>
      <trkpt lat="48.5911" lon="-2.52749">
        <ele>66.358215332031</ele>
        <time>2021-05-09T08:19:55Z</time>
      </trkpt>
      <trkpt lat="48.59109" lon="-2.52737">
        <ele>66.746765136719</ele>
        <time>2021-05-09T08:20:02Z</time>
      </trkpt>
      <trkpt lat="48.59107" lon="-2.52726">
        <ele>65.758911132812</ele>
        <time>2021-05-09T08:20:07Z</time>
      </trkpt>
      <trkpt lat="48.59102" lon="-2.52717">
        <ele>63.652893066406</ele>
        <time>2021-05-09T08:20:15Z</time>
      </trkpt>
      <trkpt lat="48.59098" lon="-2.52707">
        <ele>62.739379882812</ele>
        <time>2021-05-09T08:20:22Z</time>
      </trkpt>
      <trkpt lat="48.59091" lon="-2.52697">
        <ele>63.153137207031</ele>
        <time>2021-05-09T08:20:28Z</time>
      </trkpt>
      <trkpt lat="48.59086" lon="-2.52689">
        <ele>62.811340332031</ele>
        <time>2021-05-09T08:20:35Z</time>
      </trkpt>
      <trkpt lat="48.5908" lon="-2.5268">
        <ele>62.992736816406</ele>
        <time>2021-05-09T08:20:42Z</time>
      </trkpt>
      <trkpt lat="48.59075" lon="-2.52671">
        <ele>61.737854003906</ele>
        <time>2021-05-09T08:20:50Z</time>
      </trkpt>
      <trkpt lat="48.59068" lon="-2.52661">
        <ele>62.695922851562</ele>
        <time>2021-05-09T08:20:56Z</time>
      </trkpt>
      <trkpt lat="48.59064" lon="-2.52652">
        <ele>63.832946777344</ele>
        <time>2021-05-09T08:21:01Z</time>
      </trkpt>
      <trkpt lat="48.59059" lon="-2.52642">
        <ele>63.606567382812</ele>
        <time>2021-05-09T08:21:08Z</time>
      </trkpt>
      <trkpt lat="48.59053" lon="-2.52634">
        <ele>61.091735839844</ele>
        <time>2021-05-09T08:21:15Z</time>
      </trkpt>
      <trkpt lat="48.59048" lon="-2.52624">
        <ele>63.039916992188</ele>
        <time>2021-05-09T08:21:33Z</time>
      </trkpt>
      <trkpt lat="48.59044" lon="-2.52614">
        <ele>63.916687011719</ele>
        <time>2021-05-09T08:21:39Z</time>
      </trkpt>
      <trkpt lat="48.5904" lon="-2.52604">
        <ele>63.732543945312</ele>
        <time>2021-05-09T08:21:44Z</time>
      </trkpt>
      <trkpt lat="48.59034" lon="-2.52596">
        <ele>62.4013671875</ele>
        <time>2021-05-09T08:21:51Z</time>
      </trkpt>
      <trkpt lat="48.59028" lon="-2.52586">
        <ele>61.363159179688</ele>
        <time>2021-05-09T08:22:00Z</time>
      </trkpt>
      <trkpt lat="48.59022" lon="-2.52578">
        <ele>59.641052246094</ele>
        <time>2021-05-09T08:22:07Z</time>
      </trkpt>
      <trkpt lat="48.59019" lon="-2.52568">
        <ele>61.630432128906</ele>
        <time>2021-05-09T08:22:14Z</time>
      </trkpt>
      <trkpt lat="48.59015" lon="-2.52556">
        <ele>63.667846679688</ele>
        <time>2021-05-09T08:22:21Z</time>
      </trkpt>
      <trkpt lat="48.59011" lon="-2.52544">
        <ele>63.565124511719</ele>
        <time>2021-05-09T08:22:28Z</time>
      </trkpt>
      <trkpt lat="48.59008" lon="-2.52532">
        <ele>65.279296875</ele>
        <time>2021-05-09T08:22:34Z</time>
      </trkpt>
      <trkpt lat="48.59006" lon="-2.5252">
        <ele>66.217956542969</ele>
        <time>2021-05-09T08:22:41Z</time>
      </trkpt>
      <trkpt lat="48.59002" lon="-2.5251">
        <ele>65.342468261719</ele>
        <time>2021-05-09T08:22:48Z</time>
      </trkpt>
      <trkpt lat="48.58999" lon="-2.52499">
        <ele>65.358703613281</ele>
        <time>2021-05-09T08:22:54Z</time>
      </trkpt>
      <trkpt lat="48.58996" lon="-2.52487">
        <ele>64.059326171875</ele>
        <time>2021-05-09T08:23:03Z</time>
      </trkpt>
      <trkpt lat="48.58994" lon="-2.52474">
        <ele>66.56103515625</ele>
        <time>2021-05-09T08:23:21Z</time>
      </trkpt>
      <trkpt lat="48.5899" lon="-2.52462">
        <ele>69.9560546875</ele>
        <time>2021-05-09T08:23:28Z</time>
      </trkpt>
      <trkpt lat="48.58988" lon="-2.52449">
        <ele>68.706909179688</ele>
        <time>2021-05-09T08:23:35Z</time>
      </trkpt>
      <trkpt lat="48.58986" lon="-2.52436">
        <ele>67.765075683594</ele>
        <time>2021-05-09T08:23:42Z</time>
      </trkpt>
      <trkpt lat="48.58982" lon="-2.52425">
        <ele>66.803771972656</ele>
        <time>2021-05-09T08:23:49Z</time>
      </trkpt>
      <trkpt lat="48.58977" lon="-2.52416">
        <ele>66.292846679688</ele>
        <time>2021-05-09T08:23:56Z</time>
      </trkpt>
      <trkpt lat="48.58971" lon="-2.52407">
        <ele>67.064758300781</ele>
        <time>2021-05-09T08:24:03Z</time>
      </trkpt>
      <trkpt lat="48.58964" lon="-2.52401">
        <ele>67.032348632812</ele>
        <time>2021-05-09T08:24:09Z</time>
      </trkpt>
      <trkpt lat="48.58957" lon="-2.52394">
        <ele>68.367797851562</ele>
        <time>2021-05-09T08:24:15Z</time>
      </trkpt>
      <trkpt lat="48.58953" lon="-2.52382">
        <ele>67.842895507812</ele>
        <time>2021-05-09T08:24:22Z</time>
      </trkpt>
      <trkpt lat="48.58958" lon="-2.52372">
        <ele>67.185913085938</ele>
        <time>2021-05-09T08:24:29Z</time>
      </trkpt>
      <trkpt lat="48.58963" lon="-2.52363">
        <ele>68.191528320312</ele>
        <time>2021-05-09T08:24:36Z</time>
      </trkpt>
      <trkpt lat="48.58969" lon="-2.52353">
        <ele>68.302673339844</ele>
        <time>2021-05-09T08:24:43Z</time>
      </trkpt>
      <trkpt lat="48.58973" lon="-2.52343">
        <ele>68.082763671875</ele>
        <time>2021-05-09T08:24:50Z</time>
      </trkpt>
      <trkpt lat="48.58978" lon="-2.52333">
        <ele>67.806274414062</ele>
        <time>2021-05-09T08:24:57Z</time>
      </trkpt>
      <trkpt lat="48.58981" lon="-2.52322">
        <ele>66.479919433594</ele>
        <time>2021-05-09T08:25:04Z</time>
      </trkpt>
      <trkpt lat="48.58985" lon="-2.52311">
        <ele>67.877502441406</ele>
        <time>2021-05-09T08:25:11Z</time>
      </trkpt>
      <trkpt lat="48.5899" lon="-2.52299">
        <ele>68.329223632812</ele>
        <time>2021-05-09T08:25:17Z</time>
      </trkpt>
      <trkpt lat="48.58994" lon="-2.52289">
        <ele>69.387878417969</ele>
        <time>2021-05-09T08:25:23Z</time>
      </trkpt>
      <trkpt lat="48.58998" lon="-2.52279">
        <ele>68.4599609375</ele>
        <time>2021-05-09T08:25:30Z</time>
      </trkpt>
      <trkpt lat="48.59003" lon="-2.52269">
        <ele>69.223754882812</ele>
        <time>2021-05-09T08:25:37Z</time>
      </trkpt>
      <trkpt lat="48.59006" lon="-2.52258">
        <ele>67.594604492188</ele>
        <time>2021-05-09T08:25:43Z</time>
      </trkpt>
      <trkpt lat="48.5901" lon="-2.52247">
        <ele>68.081787109375</ele>
        <time>2021-05-09T08:25:49Z</time>
      </trkpt>
      <trkpt lat="48.59013" lon="-2.52236">
        <ele>66.651062011719</ele>
        <time>2021-05-09T08:25:56Z</time>
      </trkpt>
      <trkpt lat="48.59016" lon="-2.52224">
        <ele>65.648498535156</ele>
        <time>2021-05-09T08:26:03Z</time>
      </trkpt>
      <trkpt lat="48.59021" lon="-2.52214">
        <ele>66.29931640625</ele>
        <time>2021-05-09T08:26:08Z</time>
      </trkpt>
      <trkpt lat="48.59026" lon="-2.52203">
        <ele>67.242553710938</ele>
        <time>2021-05-09T08:26:15Z</time>
      </trkpt>
      <trkpt lat="48.59028" lon="-2.5219">
        <ele>66.685485839844</ele>
        <time>2021-05-09T08:26:22Z</time>
      </trkpt>
      <trkpt lat="48.59029" lon="-2.52178">
        <ele>66.624572753906</ele>
        <time>2021-05-09T08:26:29Z</time>
      </trkpt>
      <trkpt lat="48.59031" lon="-2.52167">
        <ele>66.515014648438</ele>
        <time>2021-05-09T08:26:34Z</time>
      </trkpt>
      <trkpt lat="48.59032" lon="-2.52155">
        <ele>65.248413085938</ele>
        <time>2021-05-09T08:26:41Z</time>
      </trkpt>
      <trkpt lat="48.59033" lon="-2.52142">
        <ele>64.1796875</ele>
        <time>2021-05-09T08:26:48Z</time>
      </trkpt>
      <trkpt lat="48.59036" lon="-2.52129">
        <ele>64.087585449219</ele>
        <time>2021-05-09T08:26:55Z</time>
      </trkpt>
      <trkpt lat="48.59038" lon="-2.52119">
        <ele>65.124572753906</ele>
        <time>2021-05-09T08:27:00Z</time>
      </trkpt>
      <trkpt lat="48.59042" lon="-2.52107">
        <ele>68.5478515625</ele>
        <time>2021-05-09T08:27:06Z</time>
      </trkpt>
      <trkpt lat="48.59043" lon="-2.52095">
        <ele>68.818908691406</ele>
        <time>2021-05-09T08:27:11Z</time>
      </trkpt>
      <trkpt lat="48.59045" lon="-2.52085">
        <ele>68.177673339844</ele>
        <time>2021-05-09T08:27:18Z</time>
      </trkpt>
      <trkpt lat="48.59046" lon="-2.52074">
        <ele>68.404235839844</ele>
        <time>2021-05-09T08:27:24Z</time>
      </trkpt>
      <trkpt lat="48.59048" lon="-2.5206">
        <ele>67.248779296875</ele>
        <time>2021-05-09T08:27:31Z</time>
      </trkpt>
      <trkpt lat="48.5905" lon="-2.52048">
        <ele>66.415893554688</ele>
        <time>2021-05-09T08:27:37Z</time>
      </trkpt>
      <trkpt lat="48.59052" lon="-2.52037">
        <ele>67.111206054688</ele>
        <time>2021-05-09T08:27:44Z</time>
      </trkpt>
      <trkpt lat="48.59055" lon="-2.52026">
        <ele>67.507568359375</ele>
        <time>2021-05-09T08:27:51Z</time>
      </trkpt>
      <trkpt lat="48.59058" lon="-2.52015">
        <ele>66.793334960938</ele>
        <time>2021-05-09T08:27:58Z</time>
      </trkpt>
      <trkpt lat="48.59058" lon="-2.52002">
        <ele>67.41259765625</ele>
        <time>2021-05-09T08:28:05Z</time>
      </trkpt>
      <trkpt lat="48.59057" lon="-2.51991">
        <ele>67.600830078125</ele>
        <time>2021-05-09T08:28:10Z</time>
      </trkpt>
      <trkpt lat="48.59057" lon="-2.51977">
        <ele>66.227233886719</ele>
        <time>2021-05-09T08:28:18Z</time>
      </trkpt>
      <trkpt lat="48.59057" lon="-2.51965">
        <ele>65.6845703125</ele>
        <time>2021-05-09T08:28:25Z</time>
      </trkpt>
      <trkpt lat="48.59056" lon="-2.51953">
        <ele>68.237487792969</ele>
        <time>2021-05-09T08:28:32Z</time>
      </trkpt>
      <trkpt lat="48.59054" lon="-2.51941">
        <ele>69.493835449219</ele>
        <time>2021-05-09T08:28:39Z</time>
      </trkpt>
      <trkpt lat="48.59054" lon="-2.51929">
        <ele>66.434936523438</ele>
        <time>2021-05-09T08:28:44Z</time>
      </trkpt>
      <trkpt lat="48.59055" lon="-2.51918">
        <ele>67.155151367188</ele>
        <time>2021-05-09T08:28:50Z</time>
      </trkpt>
      <trkpt lat="48.59054" lon="-2.51906">
        <ele>66.690795898438</ele>
        <time>2021-05-09T08:28:55Z</time>
      </trkpt>
      <trkpt lat="48.59054" lon="-2.51893">
        <ele>67.719665527344</ele>
        <time>2021-05-09T08:29:03Z</time>
      </trkpt>
      <trkpt lat="48.59053" lon="-2.5188">
        <ele>66.506103515625</ele>
        <time>2021-05-09T08:29:10Z</time>
      </trkpt>
      <trkpt lat="48.59054" lon="-2.51867">
        <ele>66.593505859375</ele>
        <time>2021-05-09T08:29:17Z</time>
      </trkpt>
      <trkpt lat="48.59058" lon="-2.51855">
        <ele>64.669189453125</ele>
        <time>2021-05-09T08:29:24Z</time>
      </trkpt>
      <trkpt lat="48.59064" lon="-2.51847">
        <ele>64.387573242188</ele>
        <time>2021-05-09T08:29:32Z</time>
      </trkpt>
      <trkpt lat="48.59071" lon="-2.5184">
        <ele>63.559814453125</ele>
        <time>2021-05-09T08:29:39Z</time>
      </trkpt>
      <trkpt lat="48.59077" lon="-2.51832">
        <ele>63.016845703125</ele>
        <time>2021-05-09T08:29:44Z</time>
      </trkpt>
      <trkpt lat="48.59084" lon="-2.51825">
        <ele>61.157409667969</ele>
        <time>2021-05-09T08:29:52Z</time>
      </trkpt>
      <trkpt lat="48.59091" lon="-2.51816">
        <ele>58.559020996094</ele>
        <time>2021-05-09T08:30:00Z</time>
      </trkpt>
      <trkpt lat="48.59097" lon="-2.51807">
        <ele>56.649291992188</ele>
        <time>2021-05-09T08:30:08Z</time>
      </trkpt>
      <trkpt lat="48.59104" lon="-2.51798">
        <ele>54.919494628906</ele>
        <time>2021-05-09T08:30:15Z</time>
      </trkpt>
      <trkpt lat="48.59109" lon="-2.51788">
        <ele>53.439514160156</ele>
        <time>2021-05-09T08:30:22Z</time>
      </trkpt>
      <trkpt lat="48.59115" lon="-2.5178">
        <ele>51.883239746094</ele>
        <time>2021-05-09T08:30:29Z</time>
      </trkpt>
      <trkpt lat="48.59121" lon="-2.51771">
        <ele>51.454772949219</ele>
        <time>2021-05-09T08:30:36Z</time>
      </trkpt>
      <trkpt lat="48.59126" lon="-2.51761">
        <ele>51.545288085938</ele>
        <time>2021-05-09T08:30:44Z</time>
      </trkpt>
      <trkpt lat="48.5913" lon="-2.51749">
        <ele>49.725524902344</ele>
        <time>2021-05-09T08:30:51Z</time>
      </trkpt>
      <trkpt lat="48.59133" lon="-2.51738">
        <ele>49.114929199219</ele>
        <time>2021-05-09T08:30:58Z</time>
      </trkpt>
      <trkpt lat="48.59137" lon="-2.51726">
        <ele>48.637817382812</ele>
        <time>2021-05-09T08:31:04Z</time>
      </trkpt>
      <trkpt lat="48.59138" lon="-2.51713">
        <ele>50.45361328125</ele>
        <time>2021-05-09T08:31:10Z</time>
      </trkpt>
      <trkpt lat="48.59137" lon="-2.517">
        <ele>48.979553222656</ele>
        <time>2021-05-09T08:31:19Z</time>
      </trkpt>
      <trkpt lat="48.59144" lon="-2.51691">
        <ele>52.343017578125</ele>
        <time>2021-05-09T08:31:38Z</time>
      </trkpt>
      <trkpt lat="48.59143" lon="-2.51678">
        <ele>49.946960449219</ele>
        <time>2021-05-09T08:31:46Z</time>
      </trkpt>
      <trkpt lat="48.59143" lon="-2.51665">
        <ele>49.4931640625</ele>
        <time>2021-05-09T08:31:53Z</time>
      </trkpt>
      <trkpt lat="48.59139" lon="-2.51656">
        <ele>50.606567382812</ele>
        <time>2021-05-09T08:31:58Z</time>
      </trkpt>
      <trkpt lat="48.59138" lon="-2.51643">
        <ele>49.005798339844</ele>
        <time>2021-05-09T08:32:05Z</time>
      </trkpt>
      <trkpt lat="48.59143" lon="-2.51635">
        <ele>46.947692871094</ele>
        <time>2021-05-09T08:32:11Z</time>
      </trkpt>
      <trkpt lat="48.59149" lon="-2.51625">
        <ele>46.3388671875</ele>
        <time>2021-05-09T08:32:19Z</time>
      </trkpt>
      <trkpt lat="48.59153" lon="-2.51613">
        <ele>46.34423828125</ele>
        <time>2021-05-09T08:32:27Z</time>
      </trkpt>
      <trkpt lat="48.59158" lon="-2.51605">
        <ele>45.643493652344</ele>
        <time>2021-05-09T08:32:44Z</time>
      </trkpt>
      <trkpt lat="48.59165" lon="-2.516">
        <ele>51.811828613281</ele>
        <time>2021-05-09T08:32:52Z</time>
      </trkpt>
      <trkpt lat="48.59173" lon="-2.51597">
        <ele>52.47509765625</ele>
        <time>2021-05-09T08:32:58Z</time>
      </trkpt>
      <trkpt lat="48.59181" lon="-2.5159">
        <ele>55.536682128906</ele>
        <time>2021-05-09T08:33:04Z</time>
      </trkpt>
      <trkpt lat="48.59187" lon="-2.51581">
        <ele>53.057800292969</ele>
        <time>2021-05-09T08:33:12Z</time>
      </trkpt>
      <trkpt lat="48.59191" lon="-2.5157">
        <ele>53.415893554688</ele>
        <time>2021-05-09T08:33:19Z</time>
      </trkpt>
      <trkpt lat="48.59194" lon="-2.51557">
        <ele>50.153747558594</ele>
        <time>2021-05-09T08:33:28Z</time>
      </trkpt>
      <trkpt lat="48.59198" lon="-2.51546">
        <ele>48.181396484375</ele>
        <time>2021-05-09T08:33:40Z</time>
      </trkpt>
      <trkpt lat="48.592" lon="-2.51533">
        <ele>47.177062988281</ele>
        <time>2021-05-09T08:33:52Z</time>
      </trkpt>
      <trkpt lat="48.59197" lon="-2.5152">
        <ele>44.808959960938</ele>
        <time>2021-05-09T08:34:14Z</time>
      </trkpt>
      <trkpt lat="48.59199" lon="-2.51507">
        <ele>46.156433105469</ele>
        <time>2021-05-09T08:34:22Z</time>
      </trkpt>
      <trkpt lat="48.59202" lon="-2.51495">
        <ele>51.102233886719</ele>
        <time>2021-05-09T08:34:30Z</time>
      </trkpt>
      <trkpt lat="48.59204" lon="-2.51483">
        <ele>54.210693359375</ele>
        <time>2021-05-09T08:34:37Z</time>
      </trkpt>
      <trkpt lat="48.59207" lon="-2.5147">
        <ele>55.418579101562</ele>
        <time>2021-05-09T08:34:44Z</time>
      </trkpt>
      <trkpt lat="48.5921" lon="-2.51458">
        <ele>54.941528320312</ele>
        <time>2021-05-09T08:34:51Z</time>
      </trkpt>
      <trkpt lat="48.59213" lon="-2.51447">
        <ele>56.005004882812</ele>
        <time>2021-05-09T08:34:58Z</time>
      </trkpt>
      <trkpt lat="48.59218" lon="-2.51439">
        <ele>59.094543457031</ele>
        <time>2021-05-09T08:35:03Z</time>
      </trkpt>
      <trkpt lat="48.59224" lon="-2.5143">
        <ele>59.792724609375</ele>
        <time>2021-05-09T08:35:10Z</time>
      </trkpt>
      <trkpt lat="48.5923" lon="-2.51421">
        <ele>59.203735351562</ele>
        <time>2021-05-09T08:35:19Z</time>
      </trkpt>
      <trkpt lat="48.59236" lon="-2.51413">
        <ele>59.61474609375</ele>
        <time>2021-05-09T08:35:26Z</time>
      </trkpt>
      <trkpt lat="48.59242" lon="-2.51405">
        <ele>58.917175292969</ele>
        <time>2021-05-09T08:35:35Z</time>
      </trkpt>
      <trkpt lat="48.59248" lon="-2.51396">
        <ele>59.340759277344</ele>
        <time>2021-05-09T08:35:42Z</time>
      </trkpt>
      <trkpt lat="48.59255" lon="-2.51387">
        <ele>62.497009277344</ele>
        <time>2021-05-09T08:35:50Z</time>
      </trkpt>
      <trkpt lat="48.59261" lon="-2.51377">
        <ele>62.9150390625</ele>
        <time>2021-05-09T08:35:59Z</time>
      </trkpt>
      <trkpt lat="48.59264" lon="-2.51366">
        <ele>64.318725585938</ele>
        <time>2021-05-09T08:36:16Z</time>
      </trkpt>
      <trkpt lat="48.59267" lon="-2.51356">
        <ele>66.96240234375</ele>
        <time>2021-05-09T08:36:22Z</time>
      </trkpt>
      <trkpt lat="48.59269" lon="-2.51345">
        <ele>67.812622070312</ele>
        <time>2021-05-09T08:36:27Z</time>
      </trkpt>
      <trkpt lat="48.5927" lon="-2.51332">
        <ele>67.51953125</ele>
        <time>2021-05-09T08:36:33Z</time>
      </trkpt>
      <trkpt lat="48.59272" lon="-2.51319">
        <ele>66.936340332031</ele>
        <time>2021-05-09T08:36:42Z</time>
      </trkpt>
      <trkpt lat="48.59274" lon="-2.51308">
        <ele>66.685729980469</ele>
        <time>2021-05-09T08:36:49Z</time>
      </trkpt>
      <trkpt lat="48.59277" lon="-2.51297">
        <ele>69.506713867188</ele>
        <time>2021-05-09T08:36:55Z</time>
      </trkpt>
      <trkpt lat="48.59281" lon="-2.51285">
        <ele>71.788146972656</ele>
        <time>2021-05-09T08:37:02Z</time>
      </trkpt>
      <trkpt lat="48.59283" lon="-2.51272">
        <ele>71.222839355469</ele>
        <time>2021-05-09T08:37:09Z</time>
      </trkpt>
      <trkpt lat="48.59284" lon="-2.5126">
        <ele>68.704956054688</ele>
        <time>2021-05-09T08:37:16Z</time>
      </trkpt>
      <trkpt lat="48.59283" lon="-2.51248">
        <ele>66.602844238281</ele>
        <time>2021-05-09T08:37:29Z</time>
      </trkpt>
      <trkpt lat="48.59283" lon="-2.51236">
        <ele>65.931579589844</ele>
        <time>2021-05-09T08:37:36Z</time>
      </trkpt>
      <trkpt lat="48.59282" lon="-2.51222">
        <ele>66.662963867188</ele>
        <time>2021-05-09T08:37:43Z</time>
      </trkpt>
      <trkpt lat="48.59281" lon="-2.51211">
        <ele>69.09033203125</ele>
        <time>2021-05-09T08:37:50Z</time>
      </trkpt>
      <trkpt lat="48.59282" lon="-2.51197">
        <ele>69.148193359375</ele>
        <time>2021-05-09T08:38:00Z</time>
      </trkpt>
      <trkpt lat="48.59283" lon="-2.51184">
        <ele>69.146301269531</ele>
        <time>2021-05-09T08:38:18Z</time>
      </trkpt>
      <trkpt lat="48.59284" lon="-2.51173">
        <ele>69.60791015625</ele>
        <time>2021-05-09T08:38:24Z</time>
      </trkpt>
      <trkpt lat="48.59284" lon="-2.51161">
        <ele>70.223205566406</ele>
        <time>2021-05-09T08:38:30Z</time>
      </trkpt>
      <trkpt lat="48.59283" lon="-2.51149">
        <ele>73.204956054688</ele>
        <time>2021-05-09T08:38:37Z</time>
      </trkpt>
      <trkpt lat="48.59285" lon="-2.51136">
        <ele>72.701354980469</ele>
        <time>2021-05-09T08:38:45Z</time>
      </trkpt>
      <trkpt lat="48.59286" lon="-2.51123">
        <ele>74.58251953125</ele>
        <time>2021-05-09T08:38:52Z</time>
      </trkpt>
      <trkpt lat="48.59287" lon="-2.51111">
        <ele>74.101989746094</ele>
        <time>2021-05-09T08:38:58Z</time>
      </trkpt>
      <trkpt lat="48.59289" lon="-2.51098">
        <ele>74.771423339844</ele>
        <time>2021-05-09T08:39:07Z</time>
      </trkpt>
      <trkpt lat="48.59292" lon="-2.51086">
        <ele>74.14404296875</ele>
        <time>2021-05-09T08:39:16Z</time>
      </trkpt>
      <trkpt lat="48.59296" lon="-2.51075">
        <ele>72.187805175781</ele>
        <time>2021-05-09T08:39:21Z</time>
      </trkpt>
      <trkpt lat="48.59297" lon="-2.51063">
        <ele>72.999938964844</ele>
        <time>2021-05-09T08:39:28Z</time>
      </trkpt>
      <trkpt lat="48.59302" lon="-2.51053">
        <ele>74.078918457031</ele>
        <time>2021-05-09T08:39:34Z</time>
      </trkpt>
      <trkpt lat="48.59307" lon="-2.51042">
        <ele>75.398071289062</ele>
        <time>2021-05-09T08:39:41Z</time>
      </trkpt>
      <trkpt lat="48.59311" lon="-2.51031">
        <ele>76.74951171875</ele>
        <time>2021-05-09T08:39:48Z</time>
      </trkpt>
      <trkpt lat="48.59315" lon="-2.5102">
        <ele>76.418273925781</ele>
        <time>2021-05-09T08:39:54Z</time>
      </trkpt>
      <trkpt lat="48.59318" lon="-2.51007">
        <ele>78.163024902344</ele>
        <time>2021-05-09T08:40:02Z</time>
      </trkpt>
      <trkpt lat="48.59322" lon="-2.50997">
        <ele>76.307861328125</ele>
        <time>2021-05-09T08:40:09Z</time>
      </trkpt>
      <trkpt lat="48.59326" lon="-2.50986">
        <ele>78.6416015625</ele>
        <time>2021-05-09T08:40:14Z</time>
      </trkpt>
      <trkpt lat="48.59332" lon="-2.50977">
        <ele>76.260681152344</ele>
        <time>2021-05-09T08:40:22Z</time>
      </trkpt>
      <trkpt lat="48.59335" lon="-2.50966">
        <ele>74.969787597656</ele>
        <time>2021-05-09T08:40:29Z</time>
      </trkpt>
      <trkpt lat="48.59339" lon="-2.50956">
        <ele>76.510559082031</ele>
        <time>2021-05-09T08:40:36Z</time>
      </trkpt>
      <trkpt lat="48.59342" lon="-2.50943">
        <ele>75.926818847656</ele>
        <time>2021-05-09T08:40:44Z</time>
      </trkpt>
      <trkpt lat="48.59347" lon="-2.50932">
        <ele>78.561645507812</ele>
        <time>2021-05-09T08:40:51Z</time>
      </trkpt>
      <trkpt lat="48.59353" lon="-2.50922">
        <ele>78.308349609375</ele>
        <time>2021-05-09T08:41:02Z</time>
      </trkpt>
      <trkpt lat="48.59357" lon="-2.5091">
        <ele>77.552673339844</ele>
        <time>2021-05-09T08:41:10Z</time>
      </trkpt>
      <trkpt lat="48.5936" lon="-2.50898">
        <ele>78.895751953125</ele>
        <time>2021-05-09T08:41:22Z</time>
      </trkpt>
      <trkpt lat="48.59363" lon="-2.50886">
        <ele>78.233459472656</ele>
        <time>2021-05-09T08:41:29Z</time>
      </trkpt>
      <trkpt lat="48.59366" lon="-2.50875">
        <ele>77.759094238281</ele>
        <time>2021-05-09T08:41:35Z</time>
      </trkpt>
      <trkpt lat="48.59369" lon="-2.50863">
        <ele>79.161376953125</ele>
        <time>2021-05-09T08:41:47Z</time>
      </trkpt>
      <trkpt lat="48.59372" lon="-2.50851">
        <ele>79.35595703125</ele>
        <time>2021-05-09T08:41:54Z</time>
      </trkpt>
      <trkpt lat="48.59375" lon="-2.50839">
        <ele>78.627868652344</ele>
        <time>2021-05-09T08:42:00Z</time>
      </trkpt>
      <trkpt lat="48.59375" lon="-2.50825">
        <ele>78.016723632812</ele>
        <time>2021-05-09T08:42:08Z</time>
      </trkpt>
      <trkpt lat="48.59377" lon="-2.50812">
        <ele>78.627075195312</ele>
        <time>2021-05-09T08:42:16Z</time>
      </trkpt>
      <trkpt lat="48.59378" lon="-2.50799">
        <ele>80.120300292969</ele>
        <time>2021-05-09T08:42:23Z</time>
      </trkpt>
      <trkpt lat="48.59379" lon="-2.50787">
        <ele>80.881713867188</ele>
        <time>2021-05-09T08:42:29Z</time>
      </trkpt>
      <trkpt lat="48.5938" lon="-2.50773">
        <ele>79.869445800781</ele>
        <time>2021-05-09T08:42:36Z</time>
      </trkpt>
      <trkpt lat="48.59378" lon="-2.50762">
        <ele>79.617126464844</ele>
        <time>2021-05-09T08:42:44Z</time>
      </trkpt>
      <trkpt lat="48.59378" lon="-2.5075">
        <ele>80.5</ele>
        <time>2021-05-09T08:42:49Z</time>
      </trkpt>
      <trkpt lat="48.59378" lon="-2.50739">
        <ele>79.720520019531</ele>
        <time>2021-05-09T08:42:55Z</time>
      </trkpt>
      <trkpt lat="48.59377" lon="-2.50728">
        <ele>79.989379882812</ele>
        <time>2021-05-09T08:43:02Z</time>
      </trkpt>
      <trkpt lat="48.59376" lon="-2.50715">
        <ele>81.233520507812</ele>
        <time>2021-05-09T08:43:09Z</time>
      </trkpt>
      <trkpt lat="48.59376" lon="-2.50703">
        <ele>82.227355957031</ele>
        <time>2021-05-09T08:43:16Z</time>
      </trkpt>
      <trkpt lat="48.59375" lon="-2.50691">
        <ele>83.106079101562</ele>
        <time>2021-05-09T08:43:23Z</time>
      </trkpt>
      <trkpt lat="48.59373" lon="-2.50669">
        <ele>81.1</ele>
      </trkpt>
      <trkpt lat="48.59414" lon="-2.50686">
        <ele>78.7</ele>
      </trkpt>
      <trkpt lat="48.59444" lon="-2.50705">
        <ele>76.8</ele>
      </trkpt>
      <trkpt lat="48.59464" lon="-2.50721">
        <ele>75.4</ele>
      </trkpt>
      <trkpt lat="48.59487" lon="-2.50758">
        <ele>73.5</ele>
      </trkpt>
      <trkpt lat="48.59512" lon="-2.50801">
        <ele>72.1</ele>
      </trkpt>
      <trkpt lat="48.59547" lon="-2.50863">
        <ele>70.7</ele>
      </trkpt>
      <trkpt lat="48.59664" lon="-2.51002">
        <ele>61.1</ele>
      </trkpt>
      <trkpt lat="48.5974" lon="-2.51041">
        <ele>62.6</ele>
        <time>2021-05-09T08:43:30Z</time>
      </trkpt>
      <trkpt lat="48.59674" lon="-2.51001">
        <ele>61</ele>
      </trkpt>
      <trkpt lat="48.59547" lon="-2.50852">
        <ele>70.7</ele>
      </trkpt>
      <trkpt lat="48.59562" lon="-2.5082">
        <ele>70.7</ele>
        <time>2021-05-09T08:43:37Z</time>
      </trkpt>
      <trkpt lat="48.59577" lon="-2.508">
        <ele>70.5</ele>
        <time>2021-05-09T08:43:45Z</time>
      </trkpt>
      <trkpt lat="48.59587" lon="-2.50785">
        <ele>70.4</ele>
        <time>2021-05-09T08:43:52Z</time>
      </trkpt>
      <trkpt lat="48.59593" lon="-2.50775">
        <ele>70.2</ele>
        <time>2021-05-09T08:43:59Z</time>
      </trkpt>
      <trkpt lat="48.59598" lon="-2.50765">
        <ele>70.1</ele>
        <time>2021-05-09T08:44:06Z</time>
      </trkpt>
      <trkpt lat="48.59607" lon="-2.5075">
        <ele>69.9</ele>
        <time>2021-05-09T08:44:23Z</time>
      </trkpt>
      <trkpt lat="48.59614" lon="-2.50734">
        <ele>69.9</ele>
        <time>2021-05-09T08:44:34Z</time>
      </trkpt>
      <trkpt lat="48.59622" lon="-2.50723">
        <ele>69.8</ele>
        <time>2021-05-09T08:44:41Z</time>
      </trkpt>
      <trkpt lat="48.59642" lon="-2.50679">
        <ele>69.9</ele>
        <time>2021-05-09T08:44:50Z</time>
      </trkpt>
      <trkpt lat="48.59818" lon="-2.50363">
        <ele>69.1</ele>
      </trkpt>
      <trkpt lat="48.59814" lon="-2.50336">
        <ele>69.4</ele>
      </trkpt>
      <trkpt lat="48.59734" lon="-2.50303">
        <ele>70.8</ele>
      </trkpt>
      <trkpt lat="48.59641" lon="-2.5029">
        <ele>73.4</ele>
      </trkpt>
      <trkpt lat="48.59571" lon="-2.5029">
        <ele>75.8</ele>
      </trkpt>
      <trkpt lat="48.59542" lon="-2.50296">
        <ele>76.5</ele>
      </trkpt>
      <trkpt lat="48.59521" lon="-2.50276">
        <ele>77.1</ele>
      </trkpt>
      <trkpt lat="48.59451" lon="-2.5015">
        <ele>82.8</ele>
      </trkpt>
      <trkpt lat="48.59446" lon="-2.50146">
        <ele>83.2</ele>
        <time>2021-05-09T08:58:14Z</time>
      </trkpt>
      <trkpt lat="48.59443" lon="-2.50139">
        <ele>83.051147460938</ele>
        <time>2021-05-09T08:58:20Z</time>
      </trkpt>
      <trkpt lat="48.5944" lon="-2.50127">
        <ele>81.481384277344</ele>
        <time>2021-05-09T08:58:29Z</time>
      </trkpt>
      <trkpt lat="48.5944" lon="-2.50114">
        <ele>81.0478515625</ele>
        <time>2021-05-09T08:58:35Z</time>
      </trkpt>
      <trkpt lat="48.59442" lon="-2.50102">
        <ele>81.521301269531</ele>
        <time>2021-05-09T08:58:42Z</time>
      </trkpt>
      <trkpt lat="48.59446" lon="-2.50091">
        <ele>83.523132324219</ele>
        <time>2021-05-09T08:58:47Z</time>
      </trkpt>
      <trkpt lat="48.59451" lon="-2.5008">
        <ele>83.460327148438</ele>
        <time>2021-05-09T08:58:54Z</time>
      </trkpt>
      <trkpt lat="48.59455" lon="-2.50069">
        <ele>82.559204101562</ele>
        <time>2021-05-09T08:59:01Z</time>
      </trkpt>
      <trkpt lat="48.59462" lon="-2.50061">
        <ele>79.306274414062</ele>
        <time>2021-05-09T08:59:18Z</time>
      </trkpt>
      <trkpt lat="48.59468" lon="-2.50054">
        <ele>77.572937011719</ele>
        <time>2021-05-09T08:59:25Z</time>
      </trkpt>
      <trkpt lat="48.59475" lon="-2.50049">
        <ele>79.442504882812</ele>
        <time>2021-05-09T08:59:30Z</time>
      </trkpt>
      <trkpt lat="48.59482" lon="-2.50041">
        <ele>76.089050292969</ele>
        <time>2021-05-09T08:59:38Z</time>
      </trkpt>
      <trkpt lat="48.5949" lon="-2.50037">
        <ele>77.427734375</ele>
        <time>2021-05-09T08:59:45Z</time>
      </trkpt>
      <trkpt lat="48.59499" lon="-2.50036">
        <ele>77.8271484375</ele>
        <time>2021-05-09T08:59:52Z</time>
      </trkpt>
      <trkpt lat="48.59506" lon="-2.50028">
        <ele>78.59326171875</ele>
        <time>2021-05-09T08:59:58Z</time>
      </trkpt>
      <trkpt lat="48.59512" lon="-2.50021">
        <ele>77.292724609375</ele>
        <time>2021-05-09T09:00:04Z</time>
      </trkpt>
      <trkpt lat="48.5952" lon="-2.50016">
        <ele>78.346008300781</ele>
        <time>2021-05-09T09:00:11Z</time>
      </trkpt>
      <trkpt lat="48.59528" lon="-2.50012">
        <ele>77.242736816406</ele>
        <time>2021-05-09T09:00:17Z</time>
      </trkpt>
      <trkpt lat="48.59536" lon="-2.50006">
        <ele>77.735290527344</ele>
        <time>2021-05-09T09:00:25Z</time>
      </trkpt>
      <trkpt lat="48.59543" lon="-2.50003">
        <ele>75.453369140625</ele>
        <time>2021-05-09T09:00:31Z</time>
      </trkpt>
      <trkpt lat="48.59549" lon="-2.49996">
        <ele>75.83154296875</ele>
        <time>2021-05-09T09:00:37Z</time>
      </trkpt>
      <trkpt lat="48.59556" lon="-2.4999">
        <ele>75.965637207031</ele>
        <time>2021-05-09T09:00:43Z</time>
      </trkpt>
      <trkpt lat="48.59563" lon="-2.49984">
        <ele>72.302307128906</ele>
        <time>2021-05-09T09:00:49Z</time>
      </trkpt>
      <trkpt lat="48.5957" lon="-2.49977">
        <ele>71.865234375</ele>
        <time>2021-05-09T09:00:56Z</time>
      </trkpt>
      <trkpt lat="48.59576" lon="-2.49969">
        <ele>73.678100585938</ele>
        <time>2021-05-09T09:01:03Z</time>
      </trkpt>
      <trkpt lat="48.59583" lon="-2.49962">
        <ele>74.919799804688</ele>
        <time>2021-05-09T09:01:09Z</time>
      </trkpt>
      <trkpt lat="48.59591" lon="-2.49955">
        <ele>73.113342285156</ele>
        <time>2021-05-09T09:01:15Z</time>
      </trkpt>
      <trkpt lat="48.59598" lon="-2.4995">
        <ele>76.190551757812</ele>
        <time>2021-05-09T09:01:21Z</time>
      </trkpt>
      <trkpt lat="48.59603" lon="-2.49943">
        <ele>75.736938476562</ele>
        <time>2021-05-09T09:01:29Z</time>
      </trkpt>
      <trkpt lat="48.59611" lon="-2.49934">
        <ele>78.340454101562</ele>
        <time>2021-05-09T09:01:34Z</time>
      </trkpt>
      <trkpt lat="48.59616" lon="-2.49925">
        <ele>77.7197265625</ele>
        <time>2021-05-09T09:01:41Z</time>
      </trkpt>
      <trkpt lat="48.59622" lon="-2.49917">
        <ele>73.629821777344</ele>
        <time>2021-05-09T09:01:49Z</time>
      </trkpt>
      <trkpt lat="48.59629" lon="-2.4991">
        <ele>72.623596191406</ele>
        <time>2021-05-09T09:01:55Z</time>
      </trkpt>
      <trkpt lat="48.59634" lon="-2.49901">
        <ele>71.560424804688</ele>
        <time>2021-05-09T09:02:01Z</time>
      </trkpt>
      <trkpt lat="48.59639" lon="-2.4989">
        <ele>74.208984375</ele>
        <time>2021-05-09T09:02:08Z</time>
      </trkpt>
      <trkpt lat="48.59644" lon="-2.4988">
        <ele>72.355895996094</ele>
        <time>2021-05-09T09:02:15Z</time>
      </trkpt>
      <trkpt lat="48.59651" lon="-2.49871">
        <ele>72.45361328125</ele>
        <time>2021-05-09T09:02:20Z</time>
      </trkpt>
      <trkpt lat="48.59658" lon="-2.49865">
        <ele>69.105285644531</ele>
        <time>2021-05-09T09:02:28Z</time>
      </trkpt>
      <trkpt lat="48.59665" lon="-2.49861">
        <ele>65.605285644531</ele>
        <time>2021-05-09T09:02:35Z</time>
      </trkpt>
      <trkpt lat="48.59669" lon="-2.49849">
        <ele>65.37109375</ele>
        <time>2021-05-09T09:02:41Z</time>
      </trkpt>
      <trkpt lat="48.59671" lon="-2.49838">
        <ele>68.050964355469</ele>
        <time>2021-05-09T09:02:46Z</time>
      </trkpt>
      <trkpt lat="48.59678" lon="-2.49833">
        <ele>63.898559570312</ele>
        <time>2021-05-09T09:02:53Z</time>
      </trkpt>
      <trkpt lat="48.59683" lon="-2.49824">
        <ele>65.572570800781</ele>
        <time>2021-05-09T09:03:00Z</time>
      </trkpt>
      <trkpt lat="48.59687" lon="-2.49811">
        <ele>69.375366210938</ele>
        <time>2021-05-09T09:03:05Z</time>
      </trkpt>
      <trkpt lat="48.59692" lon="-2.49802">
        <ele>70.270080566406</ele>
        <time>2021-05-09T09:03:11Z</time>
      </trkpt>
      <trkpt lat="48.59697" lon="-2.49791">
        <ele>70.86669921875</ele>
        <time>2021-05-09T09:03:17Z</time>
      </trkpt>
      <trkpt lat="48.59702" lon="-2.49783">
        <ele>71.729858398438</ele>
        <time>2021-05-09T09:03:22Z</time>
      </trkpt>
      <trkpt lat="48.59705" lon="-2.49772">
        <ele>73.003723144531</ele>
        <time>2021-05-09T09:03:28Z</time>
      </trkpt>
      <trkpt lat="48.59709" lon="-2.49761">
        <ele>72.802734375</ele>
        <time>2021-05-09T09:03:34Z</time>
      </trkpt>
      <trkpt lat="48.59714" lon="-2.49753">
        <ele>74.3876953125</ele>
        <time>2021-05-09T09:03:40Z</time>
      </trkpt>
      <trkpt lat="48.59717" lon="-2.49741">
        <ele>71.763488769531</ele>
        <time>2021-05-09T09:03:46Z</time>
      </trkpt>
      <trkpt lat="48.59722" lon="-2.49731">
        <ele>72.230041503906</ele>
        <time>2021-05-09T09:03:52Z</time>
      </trkpt>
      <trkpt lat="48.59729" lon="-2.49722">
        <ele>73.198303222656</ele>
        <time>2021-05-09T09:03:59Z</time>
      </trkpt>
      <trkpt lat="48.59733" lon="-2.49712">
        <ele>71.131896972656</ele>
        <time>2021-05-09T09:04:06Z</time>
      </trkpt>
      <trkpt lat="48.59738" lon="-2.49701">
        <ele>72.060302734375</ele>
        <time>2021-05-09T09:04:13Z</time>
      </trkpt>
      <trkpt lat="48.59745" lon="-2.49692">
        <ele>73.60888671875</ele>
        <time>2021-05-09T09:04:19Z</time>
      </trkpt>
      <trkpt lat="48.5975" lon="-2.49683">
        <ele>70.85302734375</ele>
        <time>2021-05-09T09:04:26Z</time>
      </trkpt>
      <trkpt lat="48.59755" lon="-2.49672">
        <ele>69.503234863281</ele>
        <time>2021-05-09T09:04:34Z</time>
      </trkpt>
      <trkpt lat="48.59761" lon="-2.49661">
        <ele>68.53955078125</ele>
        <time>2021-05-09T09:04:42Z</time>
      </trkpt>
      <trkpt lat="48.59767" lon="-2.49652">
        <ele>68.341491699219</ele>
        <time>2021-05-09T09:04:48Z</time>
      </trkpt>
      <trkpt lat="48.5977" lon="-2.49643">
        <ele>70.03173828125</ele>
        <time>2021-05-09T09:04:54Z</time>
      </trkpt>
      <trkpt lat="48.59776" lon="-2.49632">
        <ele>72.028625488281</ele>
        <time>2021-05-09T09:05:00Z</time>
      </trkpt>
      <trkpt lat="48.59781" lon="-2.49623">
        <ele>72.547973632812</ele>
        <time>2021-05-09T09:05:05Z</time>
      </trkpt>
      <trkpt lat="48.59785" lon="-2.49611">
        <ele>73.233825683594</ele>
        <time>2021-05-09T09:05:12Z</time>
      </trkpt>
      <trkpt lat="48.59791" lon="-2.49602">
        <ele>73.144897460938</ele>
        <time>2021-05-09T09:05:19Z</time>
      </trkpt>
      <trkpt lat="48.59797" lon="-2.49595">
        <ele>74.378540039062</ele>
        <time>2021-05-09T09:05:29Z</time>
      </trkpt>
      <trkpt lat="48.59802" lon="-2.49585">
        <ele>74.188232421875</ele>
        <time>2021-05-09T09:05:35Z</time>
      </trkpt>
      <trkpt lat="48.59806" lon="-2.49575">
        <ele>73.3935546875</ele>
        <time>2021-05-09T09:05:40Z</time>
      </trkpt>
      <trkpt lat="48.59811" lon="-2.49564">
        <ele>75.397216796875</ele>
        <time>2021-05-09T09:05:48Z</time>
      </trkpt>
      <trkpt lat="48.59814" lon="-2.49554">
        <ele>74.80078125</ele>
        <time>2021-05-09T09:05:55Z</time>
      </trkpt>
      <trkpt lat="48.59819" lon="-2.49544">
        <ele>74.584350585938</ele>
        <time>2021-05-09T09:06:02Z</time>
      </trkpt>
      <trkpt lat="48.59824" lon="-2.49536">
        <ele>73.653076171875</ele>
        <time>2021-05-09T09:06:07Z</time>
      </trkpt>
      <trkpt lat="48.59827" lon="-2.49525">
        <ele>71.540466308594</ele>
        <time>2021-05-09T09:06:14Z</time>
      </trkpt>
      <trkpt lat="48.5983" lon="-2.49514">
        <ele>70.541931152344</ele>
        <time>2021-05-09T09:06:21Z</time>
      </trkpt>
      <trkpt lat="48.59833" lon="-2.49504">
        <ele>70.852416992188</ele>
        <time>2021-05-09T09:06:26Z</time>
      </trkpt>
      <trkpt lat="48.59834" lon="-2.49491">
        <ele>72.714904785156</ele>
        <time>2021-05-09T09:06:33Z</time>
      </trkpt>
      <trkpt lat="48.59835" lon="-2.49478">
        <ele>71.064147949219</ele>
        <time>2021-05-09T09:06:39Z</time>
      </trkpt>
      <trkpt lat="48.59838" lon="-2.49467">
        <ele>71.294677734375</ele>
        <time>2021-05-09T09:06:45Z</time>
      </trkpt>
      <trkpt lat="48.59841" lon="-2.49454">
        <ele>71.427124023438</ele>
        <time>2021-05-09T09:06:52Z</time>
      </trkpt>
      <trkpt lat="48.59843" lon="-2.49441">
        <ele>71.298156738281</ele>
        <time>2021-05-09T09:07:00Z</time>
      </trkpt>
      <trkpt lat="48.59846" lon="-2.49429">
        <ele>71.310729980469</ele>
        <time>2021-05-09T09:07:06Z</time>
      </trkpt>
      <trkpt lat="48.59849" lon="-2.49419">
        <ele>71.3857421875</ele>
        <time>2021-05-09T09:07:12Z</time>
      </trkpt>
      <trkpt lat="48.59852" lon="-2.49407">
        <ele>71.462829589844</ele>
        <time>2021-05-09T09:07:18Z</time>
      </trkpt>
      <trkpt lat="48.59858" lon="-2.49397">
        <ele>71.493041992188</ele>
        <time>2021-05-09T09:07:24Z</time>
      </trkpt>
      <trkpt lat="48.59862" lon="-2.49386">
        <ele>71.478942871094</ele>
        <time>2021-05-09T09:07:32Z</time>
      </trkpt>
      <trkpt lat="48.59867" lon="-2.49375">
        <ele>70.786865234375</ele>
        <time>2021-05-09T09:07:39Z</time>
      </trkpt>
      <trkpt lat="48.59872" lon="-2.49365">
        <ele>68.796203613281</ele>
        <time>2021-05-09T09:07:46Z</time>
      </trkpt>
      <trkpt lat="48.59877" lon="-2.49356">
        <ele>69.90576171875</ele>
        <time>2021-05-09T09:07:51Z</time>
      </trkpt>
      <trkpt lat="48.59883" lon="-2.49347">
        <ele>70.371032714844</ele>
        <time>2021-05-09T09:07:58Z</time>
      </trkpt>
      <trkpt lat="48.59889" lon="-2.49337">
        <ele>72.986511230469</ele>
        <time>2021-05-09T09:08:04Z</time>
      </trkpt>
      <trkpt lat="48.59896" lon="-2.49329">
        <ele>72.153564453125</ele>
        <time>2021-05-09T09:08:10Z</time>
      </trkpt>
      <trkpt lat="48.59902" lon="-2.49321">
        <ele>70.660339355469</ele>
        <time>2021-05-09T09:08:17Z</time>
      </trkpt>
      <trkpt lat="48.59907" lon="-2.49314">
        <ele>71.75439453125</ele>
        <time>2021-05-09T09:08:24Z</time>
      </trkpt>
      <trkpt lat="48.59915" lon="-2.49306">
        <ele>72.2724609375</ele>
        <time>2021-05-09T09:08:29Z</time>
      </trkpt>
      <trkpt lat="48.5992" lon="-2.49299">
        <ele>71.505493164062</ele>
        <time>2021-05-09T09:08:35Z</time>
      </trkpt>
      <trkpt lat="48.59926" lon="-2.49291">
        <ele>70.657775878906</ele>
        <time>2021-05-09T09:08:40Z</time>
      </trkpt>
      <trkpt lat="48.59932" lon="-2.49283">
        <ele>70.943603515625</ele>
        <time>2021-05-09T09:08:48Z</time>
      </trkpt>
      <trkpt lat="48.59936" lon="-2.49274">
        <ele>68.037719726562</ele>
        <time>2021-05-09T09:08:55Z</time>
      </trkpt>
      <trkpt lat="48.59942" lon="-2.49264">
        <ele>67.818420410156</ele>
        <time>2021-05-09T09:09:00Z</time>
      </trkpt>
      <trkpt lat="48.59947" lon="-2.49254">
        <ele>67.830993652344</ele>
        <time>2021-05-09T09:09:08Z</time>
      </trkpt>
      <trkpt lat="48.59952" lon="-2.49244">
        <ele>66.593933105469</ele>
        <time>2021-05-09T09:09:15Z</time>
      </trkpt>
      <trkpt lat="48.59958" lon="-2.49234">
        <ele>65.106384277344</ele>
        <time>2021-05-09T09:09:20Z</time>
      </trkpt>
      <trkpt lat="48.59961" lon="-2.49224">
        <ele>66.348083496094</ele>
        <time>2021-05-09T09:09:27Z</time>
      </trkpt>
      <trkpt lat="48.59966" lon="-2.49214">
        <ele>65.233154296875</ele>
        <time>2021-05-09T09:09:33Z</time>
      </trkpt>
      <trkpt lat="48.59971" lon="-2.49203">
        <ele>64.1337890625</ele>
        <time>2021-05-09T09:09:39Z</time>
      </trkpt>
      <trkpt lat="48.59974" lon="-2.49193">
        <ele>62.78369140625</ele>
        <time>2021-05-09T09:09:47Z</time>
      </trkpt>
      <trkpt lat="48.59981" lon="-2.49185">
        <ele>64.609619140625</ele>
        <time>2021-05-09T09:09:54Z</time>
      </trkpt>
      <trkpt lat="48.59989" lon="-2.49182">
        <ele>65.882934570312</ele>
        <time>2021-05-09T09:09:59Z</time>
      </trkpt>
      <trkpt lat="48.59998" lon="-2.49184">
        <ele>65.436706542969</ele>
        <time>2021-05-09T09:10:06Z</time>
      </trkpt>
      <trkpt lat="48.60005" lon="-2.49187">
        <ele>63.207641601562</ele>
        <time>2021-05-09T09:10:13Z</time>
      </trkpt>
      <trkpt lat="48.60014" lon="-2.49188">
        <ele>64.159973144531</ele>
        <time>2021-05-09T09:10:19Z</time>
      </trkpt>
      <trkpt lat="48.60021" lon="-2.49192">
        <ele>67.339782714844</ele>
        <time>2021-05-09T09:10:26Z</time>
      </trkpt>
      <trkpt lat="48.60029" lon="-2.49198">
        <ele>66.84814453125</ele>
        <time>2021-05-09T09:10:34Z</time>
      </trkpt>
      <trkpt lat="48.60037" lon="-2.49199">
        <ele>63.598327636719</ele>
        <time>2021-05-09T09:10:40Z</time>
      </trkpt>
      <trkpt lat="48.60045" lon="-2.49201">
        <ele>63.990600585938</ele>
        <time>2021-05-09T09:10:45Z</time>
      </trkpt>
      <trkpt lat="48.60053" lon="-2.49203">
        <ele>62.201293945312</ele>
        <time>2021-05-09T09:10:52Z</time>
      </trkpt>
      <trkpt lat="48.60061" lon="-2.49207">
        <ele>61.218017578125</ele>
        <time>2021-05-09T09:10:59Z</time>
      </trkpt>
      <trkpt lat="48.60069" lon="-2.49208">
        <ele>60.781860351562</ele>
        <time>2021-05-09T09:11:05Z</time>
      </trkpt>
      <trkpt lat="48.60078" lon="-2.4921">
        <ele>58.825805664062</ele>
        <time>2021-05-09T09:11:37Z</time>
      </trkpt>
      <trkpt lat="48.60086" lon="-2.49207">
        <ele>58.88232421875</ele>
        <time>2021-05-09T09:11:45Z</time>
      </trkpt>
      <trkpt lat="48.60094" lon="-2.49205">
        <ele>62.093811035156</ele>
        <time>2021-05-09T09:11:51Z</time>
      </trkpt>
      <trkpt lat="48.60102" lon="-2.49199">
        <ele>61.139770507812</ele>
        <time>2021-05-09T09:12:11Z</time>
      </trkpt>
      <trkpt lat="48.60104" lon="-2.49188">
        <ele>60.372680664062</ele>
        <time>2021-05-09T09:12:18Z</time>
      </trkpt>
      <trkpt lat="48.60101" lon="-2.49199">
        <ele>57.652404785156</ele>
        <time>2021-05-09T09:12:47Z</time>
      </trkpt>
      <trkpt lat="48.60098" lon="-2.49212">
        <ele>57.892395019531</ele>
        <time>2021-05-09T09:13:09Z</time>
      </trkpt>
      <trkpt lat="48.60105" lon="-2.4922">
        <ele>57.390625</ele>
        <time>2021-05-09T09:13:24Z</time>
      </trkpt>
      <trkpt lat="48.60112" lon="-2.49225">
        <ele>55.501831054688</ele>
        <time>2021-05-09T09:13:31Z</time>
      </trkpt>
      <trkpt lat="48.6012" lon="-2.4923">
        <ele>57.038269042969</ele>
        <time>2021-05-09T09:13:39Z</time>
      </trkpt>
      <trkpt lat="48.60127" lon="-2.49235">
        <ele>59.004760742188</ele>
        <time>2021-05-09T09:13:46Z</time>
      </trkpt>
      <trkpt lat="48.60134" lon="-2.49242">
        <ele>59.057556152344</ele>
        <time>2021-05-09T09:13:53Z</time>
      </trkpt>
      <trkpt lat="48.60142" lon="-2.49247">
        <ele>58.74658203125</ele>
        <time>2021-05-09T09:14:00Z</time>
      </trkpt>
      <trkpt lat="48.6015" lon="-2.49252">
        <ele>56.802490234375</ele>
        <time>2021-05-09T09:14:06Z</time>
      </trkpt>
      <trkpt lat="48.60157" lon="-2.49259">
        <ele>57.803405761719</ele>
        <time>2021-05-09T09:14:23Z</time>
      </trkpt>
      <trkpt lat="48.60164" lon="-2.49265">
        <ele>59.083740234375</ele>
        <time>2021-05-09T09:14:38Z</time>
      </trkpt>
      <trkpt lat="48.60171" lon="-2.49272">
        <ele>57.586608886719</ele>
        <time>2021-05-09T09:14:56Z</time>
      </trkpt>
      <trkpt lat="48.6018" lon="-2.49277">
        <ele>57.962158203125</ele>
        <time>2021-05-09T09:15:03Z</time>
      </trkpt>
      <trkpt lat="48.60185" lon="-2.49285">
        <ele>60.528686523438</ele>
        <time>2021-05-09T09:15:08Z</time>
      </trkpt>
      <trkpt lat="48.6019" lon="-2.49294">
        <ele>59.848388671875</ele>
        <time>2021-05-09T09:15:15Z</time>
      </trkpt>
      <trkpt lat="48.60197" lon="-2.493">
        <ele>61.652954101562</ele>
        <time>2021-05-09T09:15:22Z</time>
      </trkpt>
      <trkpt lat="48.60204" lon="-2.49307">
        <ele>61.6689453125</ele>
        <time>2021-05-09T09:15:27Z</time>
      </trkpt>
      <trkpt lat="48.60212" lon="-2.49311">
        <ele>60.346984863281</ele>
        <time>2021-05-09T09:15:34Z</time>
      </trkpt>
      <trkpt lat="48.60218" lon="-2.49317">
        <ele>58.359375</ele>
        <time>2021-05-09T09:15:41Z</time>
      </trkpt>
      <trkpt lat="48.60224" lon="-2.49327">
        <ele>59.2880859375</ele>
        <time>2021-05-09T09:15:46Z</time>
      </trkpt>
      <trkpt lat="48.60229" lon="-2.49337">
        <ele>59.267639160156</ele>
        <time>2021-05-09T09:15:53Z</time>
      </trkpt>
      <trkpt lat="48.60235" lon="-2.49347">
        <ele>58.140258789062</ele>
        <time>2021-05-09T09:16:00Z</time>
      </trkpt>
      <trkpt lat="48.6024" lon="-2.49358">
        <ele>58.587280273438</ele>
        <time>2021-05-09T09:16:07Z</time>
      </trkpt>
      <trkpt lat="48.60246" lon="-2.49368">
        <ele>58.632263183594</ele>
        <time>2021-05-09T09:16:12Z</time>
      </trkpt>
      <trkpt lat="48.6025" lon="-2.49377">
        <ele>58.322998046875</ele>
        <time>2021-05-09T09:16:19Z</time>
      </trkpt>
      <trkpt lat="48.60256" lon="-2.49385">
        <ele>57.380310058594</ele>
        <time>2021-05-09T09:16:26Z</time>
      </trkpt>
      <trkpt lat="48.60263" lon="-2.49392">
        <ele>56.032592773438</ele>
        <time>2021-05-09T09:16:33Z</time>
      </trkpt>
      <trkpt lat="48.60268" lon="-2.49403">
        <ele>57.816772460938</ele>
        <time>2021-05-09T09:16:38Z</time>
      </trkpt>
      <trkpt lat="48.60273" lon="-2.49412">
        <ele>56.71337890625</ele>
        <time>2021-05-09T09:16:46Z</time>
      </trkpt>
      <trkpt lat="48.60279" lon="-2.49421">
        <ele>56.95751953125</ele>
        <time>2021-05-09T09:16:53Z</time>
      </trkpt>
      <trkpt lat="48.60286" lon="-2.49429">
        <ele>57.763977050781</ele>
        <time>2021-05-09T09:17:00Z</time>
      </trkpt>
      <trkpt lat="48.60291" lon="-2.49438">
        <ele>57.001403808594</ele>
        <time>2021-05-09T09:17:05Z</time>
      </trkpt>
      <trkpt lat="48.60296" lon="-2.49447">
        <ele>59.109252929688</ele>
        <time>2021-05-09T09:17:12Z</time>
      </trkpt>
      <trkpt lat="48.60302" lon="-2.49454">
        <ele>59.621520996094</ele>
        <time>2021-05-09T09:17:19Z</time>
      </trkpt>
      <trkpt lat="48.60307" lon="-2.49464">
        <ele>61.973754882812</ele>
        <time>2021-05-09T09:17:26Z</time>
      </trkpt>
      <trkpt lat="48.60312" lon="-2.49474">
        <ele>59.483825683594</ele>
        <time>2021-05-09T09:17:33Z</time>
      </trkpt>
      <trkpt lat="48.60314" lon="-2.49487">
        <ele>58.444641113281</ele>
        <time>2021-05-09T09:17:39Z</time>
      </trkpt>
      <trkpt lat="48.60313" lon="-2.495">
        <ele>57.128479003906</ele>
        <time>2021-05-09T09:17:47Z</time>
      </trkpt>
      <trkpt lat="48.60311" lon="-2.49512">
        <ele>56.379089355469</ele>
        <time>2021-05-09T09:17:54Z</time>
      </trkpt>
      <trkpt lat="48.60307" lon="-2.49522">
        <ele>56.116149902344</ele>
        <time>2021-05-09T09:17:59Z</time>
      </trkpt>
      <trkpt lat="48.60303" lon="-2.49532">
        <ele>52.369506835938</ele>
        <time>2021-05-09T09:18:06Z</time>
      </trkpt>
      <trkpt lat="48.603" lon="-2.49543">
        <ele>50.460632324219</ele>
        <time>2021-05-09T09:18:13Z</time>
      </trkpt>
      <trkpt lat="48.60295" lon="-2.49554">
        <ele>47.374816894531</ele>
        <time>2021-05-09T09:18:20Z</time>
      </trkpt>
      <trkpt lat="48.6029" lon="-2.49563">
        <ele>49.261779785156</ele>
        <time>2021-05-09T09:18:25Z</time>
      </trkpt>
      <trkpt lat="48.60287" lon="-2.49574">
        <ele>44.765686035156</ele>
        <time>2021-05-09T09:18:32Z</time>
      </trkpt>
      <trkpt lat="48.60281" lon="-2.49583">
        <ele>46.248962402344</ele>
        <time>2021-05-09T09:18:40Z</time>
      </trkpt>
      <trkpt lat="48.60276" lon="-2.49592">
        <ele>49.525451660156</ele>
        <time>2021-05-09T09:18:48Z</time>
      </trkpt>
      <trkpt lat="48.60268" lon="-2.496">
        <ele>47.827758789062</ele>
        <time>2021-05-09T09:18:56Z</time>
      </trkpt>
      <trkpt lat="48.60263" lon="-2.49606">
        <ele>45.819946289062</ele>
        <time>2021-05-09T09:19:00Z</time>
      </trkpt>
      <trkpt lat="48.60257" lon="-2.49615">
        <ele>43.680053710938</ele>
        <time>2021-05-09T09:19:07Z</time>
      </trkpt>
      <trkpt lat="48.60252" lon="-2.49625">
        <ele>40.14208984375</ele>
        <time>2021-05-09T09:19:14Z</time>
      </trkpt>
      <trkpt lat="48.60248" lon="-2.49636">
        <ele>37.873107910156</ele>
        <time>2021-05-09T09:19:19Z</time>
      </trkpt>
      <trkpt lat="48.60244" lon="-2.49646">
        <ele>42.342956542969</ele>
        <time>2021-05-09T09:19:26Z</time>
      </trkpt>
      <trkpt lat="48.60242" lon="-2.49659">
        <ele>42.802673339844</ele>
        <time>2021-05-09T09:19:32Z</time>
      </trkpt>
      <trkpt lat="48.60239" lon="-2.49671">
        <ele>37.580688476562</ele>
        <time>2021-05-09T09:19:39Z</time>
      </trkpt>
      <trkpt lat="48.60236" lon="-2.49682">
        <ele>34.177734375</ele>
        <time>2021-05-09T09:19:47Z</time>
      </trkpt>
      <trkpt lat="48.60231" lon="-2.49692">
        <ele>34.071105957031</ele>
        <time>2021-05-09T09:19:55Z</time>
      </trkpt>
      <trkpt lat="48.60226" lon="-2.49702">
        <ele>33.769836425781</ele>
        <time>2021-05-09T09:20:00Z</time>
      </trkpt>
      <trkpt lat="48.60218" lon="-2.49709">
        <ele>32.139099121094</ele>
        <time>2021-05-09T09:20:07Z</time>
      </trkpt>
      <trkpt lat="48.60213" lon="-2.49719">
        <ele>34.689025878906</ele>
        <time>2021-05-09T09:20:14Z</time>
      </trkpt>
      <trkpt lat="48.60206" lon="-2.49726">
        <ele>34.830444335938</ele>
        <time>2021-05-09T09:20:19Z</time>
      </trkpt>
      <trkpt lat="48.60204" lon="-2.49739">
        <ele>34.252868652344</ele>
        <time>2021-05-09T09:20:27Z</time>
      </trkpt>
      <trkpt lat="48.602" lon="-2.4975">
        <ele>30.932983398438</ele>
        <time>2021-05-09T09:20:33Z</time>
      </trkpt>
      <trkpt lat="48.60196" lon="-2.49761">
        <ele>32.4853515625</ele>
        <time>2021-05-09T09:20:39Z</time>
      </trkpt>
      <trkpt lat="48.60189" lon="-2.49769">
        <ele>30.306945800781</ele>
        <time>2021-05-09T09:20:47Z</time>
      </trkpt>
      <trkpt lat="48.60183" lon="-2.49776">
        <ele>29.059020996094</ele>
        <time>2021-05-09T09:20:53Z</time>
      </trkpt>
      <trkpt lat="48.60176" lon="-2.49785">
        <ele>27.411743164062</ele>
        <time>2021-05-09T09:20:59Z</time>
      </trkpt>
      <trkpt lat="48.60172" lon="-2.49794">
        <ele>29.338989257812</ele>
        <time>2021-05-09T09:21:07Z</time>
      </trkpt>
      <trkpt lat="48.60164" lon="-2.498">
        <ele>25.219665527344</ele>
        <time>2021-05-09T09:21:15Z</time>
      </trkpt>
      <trkpt lat="48.60157" lon="-2.49797">
        <ele>39.4423828125</ele>
        <time>2021-05-09T09:21:21Z</time>
      </trkpt>
      <trkpt lat="48.60149" lon="-2.498">
        <ele>32.309631347656</ele>
        <time>2021-05-09T09:21:26Z</time>
      </trkpt>
      <trkpt lat="48.6014" lon="-2.49799">
        <ele>26.952880859375</ele>
        <time>2021-05-09T09:21:33Z</time>
      </trkpt>
      <trkpt lat="48.60133" lon="-2.49799">
        <ele>24.382446289062</ele>
        <time>2021-05-09T09:21:37Z</time>
      </trkpt>
      <trkpt lat="48.60125" lon="-2.49796">
        <ele>25.872680664062</ele>
        <time>2021-05-09T09:21:42Z</time>
      </trkpt>
      <trkpt lat="48.60122" lon="-2.4981">
        <ele>26.896911621094</ele>
        <time>2021-05-09T09:21:47Z</time>
      </trkpt>
      <trkpt lat="48.60118" lon="-2.49822">
        <ele>24.043579101562</ele>
        <time>2021-05-09T09:21:53Z</time>
      </trkpt>
      <trkpt lat="48.60113" lon="-2.49832">
        <ele>29.051513671875</ele>
        <time>2021-05-09T09:21:59Z</time>
      </trkpt>
      <trkpt lat="48.60113" lon="-2.49843">
        <ele>28.77978515625</ele>
        <time>2021-05-09T09:22:04Z</time>
      </trkpt>
      <trkpt lat="48.60113" lon="-2.49856">
        <ele>24.266296386719</ele>
        <time>2021-05-09T09:22:13Z</time>
      </trkpt>
      <trkpt lat="48.60119" lon="-2.49865">
        <ele>32.384033203125</ele>
        <time>2021-05-09T09:22:25Z</time>
      </trkpt>
      <trkpt lat="48.6012" lon="-2.49876">
        <ele>32.37841796875</ele>
        <time>2021-05-09T09:22:29Z</time>
      </trkpt>
      <trkpt lat="48.60126" lon="-2.49889">
        <ele>28.106018066406</ele>
        <time>2021-05-09T09:22:34Z</time>
      </trkpt>
      <trkpt lat="48.60135" lon="-2.49893">
        <ele>38.306884765625</ele>
        <time>2021-05-09T09:22:41Z</time>
      </trkpt>
      <trkpt lat="48.60143" lon="-2.49896">
        <ele>34.742736816406</ele>
        <time>2021-05-09T09:22:47Z</time>
      </trkpt>
      <trkpt lat="48.60151" lon="-2.499">
        <ele>34.932983398438</ele>
        <time>2021-05-09T09:22:57Z</time>
      </trkpt>
      <trkpt lat="48.60159" lon="-2.49904">
        <ele>33.047424316406</ele>
        <time>2021-05-09T09:23:03Z</time>
      </trkpt>
      <trkpt lat="48.60166" lon="-2.49909">
        <ele>32.260986328125</ele>
        <time>2021-05-09T09:23:13Z</time>
      </trkpt>
      <trkpt lat="48.60172" lon="-2.49916">
        <ele>32.658447265625</ele>
        <time>2021-05-09T09:23:19Z</time>
      </trkpt>
      <trkpt lat="48.60178" lon="-2.49924">
        <ele>34.62744140625</ele>
        <time>2021-05-09T09:23:27Z</time>
      </trkpt>
      <trkpt lat="48.60184" lon="-2.49932">
        <ele>32.860656738281</ele>
        <time>2021-05-09T09:23:31Z</time>
      </trkpt>
      <trkpt lat="48.60192" lon="-2.49938">
        <ele>33.291564941406</ele>
        <time>2021-05-09T09:23:41Z</time>
      </trkpt>
      <trkpt lat="48.60199" lon="-2.49945">
        <ele>29.71923828125</ele>
        <time>2021-05-09T09:23:52Z</time>
      </trkpt>
      <trkpt lat="48.60207" lon="-2.49946">
        <ele>30.706665039062</ele>
        <time>2021-05-09T09:23:58Z</time>
      </trkpt>
      <trkpt lat="48.60214" lon="-2.4995">
        <ele>32.075744628906</ele>
        <time>2021-05-09T09:24:07Z</time>
      </trkpt>
      <trkpt lat="48.60218" lon="-2.49959">
        <ele>34.35986328125</ele>
        <time>2021-05-09T09:24:12Z</time>
      </trkpt>
      <trkpt lat="48.60223" lon="-2.49969">
        <ele>36.8193359375</ele>
        <time>2021-05-09T09:24:17Z</time>
      </trkpt>
      <trkpt lat="48.6023" lon="-2.49979">
        <ele>35.344848632812</ele>
        <time>2021-05-09T09:24:22Z</time>
      </trkpt>
      <trkpt lat="48.60238" lon="-2.49976">
        <ele>33.141296386719</ele>
        <time>2021-05-09T09:24:30Z</time>
      </trkpt>
      <trkpt lat="48.60246" lon="-2.49976">
        <ele>30.557189941406</ele>
        <time>2021-05-09T09:24:38Z</time>
      </trkpt>
      <trkpt lat="48.6025" lon="-2.49988">
        <ele>33.539001464844</ele>
        <time>2021-05-09T09:25:49Z</time>
      </trkpt>
      <trkpt lat="48.60246" lon="-2.5">
        <ele>29.662780761719</ele>
        <time>2021-05-09T09:26:15Z</time>
      </trkpt>
      <trkpt lat="48.60245" lon="-2.50011">
        <ele>32.102416992188</ele>
        <time>2021-05-09T09:26:21Z</time>
      </trkpt>
      <trkpt lat="48.60239" lon="-2.50021">
        <ele>31.583068847656</ele>
        <time>2021-05-09T09:26:29Z</time>
      </trkpt>
      <trkpt lat="48.60237" lon="-2.50032">
        <ele>31.636108398438</ele>
        <time>2021-05-09T09:26:36Z</time>
      </trkpt>
      <trkpt lat="48.60231" lon="-2.50042">
        <ele>30.948547363281</ele>
        <time>2021-05-09T09:26:43Z</time>
      </trkpt>
      <trkpt lat="48.60226" lon="-2.50053">
        <ele>32.705871582031</ele>
        <time>2021-05-09T09:26:55Z</time>
      </trkpt>
      <trkpt lat="48.60221" lon="-2.50064">
        <ele>33.721313476562</ele>
        <time>2021-05-09T09:27:04Z</time>
      </trkpt>
      <trkpt lat="48.60214" lon="-2.50072">
        <ele>35.496643066406</ele>
        <time>2021-05-09T09:27:10Z</time>
      </trkpt>
      <trkpt lat="48.6021" lon="-2.50084">
        <ele>35.100708007812</ele>
        <time>2021-05-09T09:27:19Z</time>
      </trkpt>
      <trkpt lat="48.60207" lon="-2.50094">
        <ele>35.638244628906</ele>
        <time>2021-05-09T09:27:25Z</time>
      </trkpt>
      <trkpt lat="48.60203" lon="-2.50105">
        <ele>36.840393066406</ele>
        <time>2021-05-09T09:27:31Z</time>
      </trkpt>
      <trkpt lat="48.60198" lon="-2.50116">
        <ele>40.575622558594</ele>
        <time>2021-05-09T09:27:38Z</time>
      </trkpt>
      <trkpt lat="48.60193" lon="-2.50125">
        <ele>43.861206054688</ele>
        <time>2021-05-09T09:27:45Z</time>
      </trkpt>
      <trkpt lat="48.6019" lon="-2.50137">
        <ele>46.892761230469</ele>
        <time>2021-05-09T09:27:53Z</time>
      </trkpt>
      <trkpt lat="48.60189" lon="-2.5015">
        <ele>42.989990234375</ele>
        <time>2021-05-09T09:28:23Z</time>
      </trkpt>
      <trkpt lat="48.60197" lon="-2.50157">
        <ele>38.364807128906</ele>
        <time>2021-05-09T09:29:21Z</time>
      </trkpt>
      <trkpt lat="48.60204" lon="-2.50162">
        <ele>37.884338378906</ele>
        <time>2021-05-09T09:29:28Z</time>
      </trkpt>
      <trkpt lat="48.60211" lon="-2.50171">
        <ele>36.238403320312</ele>
        <time>2021-05-09T09:29:36Z</time>
      </trkpt>
      <trkpt lat="48.6022" lon="-2.50175">
        <ele>37.132568359375</ele>
        <time>2021-05-09T09:29:44Z</time>
      </trkpt>
      <trkpt lat="48.60228" lon="-2.50178">
        <ele>35.622131347656</ele>
        <time>2021-05-09T09:29:50Z</time>
      </trkpt>
      <trkpt lat="48.60236" lon="-2.50181">
        <ele>34.42822265625</ele>
        <time>2021-05-09T09:29:56Z</time>
      </trkpt>
      <trkpt lat="48.60243" lon="-2.50189">
        <ele>33.495422363281</ele>
        <time>2021-05-09T09:30:02Z</time>
      </trkpt>
      <trkpt lat="48.60251" lon="-2.50193">
        <ele>33.832763671875</ele>
        <time>2021-05-09T09:30:08Z</time>
      </trkpt>
      <trkpt lat="48.60259" lon="-2.50198">
        <ele>37.916442871094</ele>
        <time>2021-05-09T09:30:14Z</time>
      </trkpt>
      <trkpt lat="48.60267" lon="-2.50202">
        <ele>40.857849121094</ele>
        <time>2021-05-09T09:30:21Z</time>
      </trkpt>
      <trkpt lat="48.60275" lon="-2.50206">
        <ele>44.002624511719</ele>
        <time>2021-05-09T09:30:27Z</time>
      </trkpt>
      <trkpt lat="48.60283" lon="-2.50211">
        <ele>41.656799316406</ele>
        <time>2021-05-09T09:30:33Z</time>
      </trkpt>
      <trkpt lat="48.60291" lon="-2.50215">
        <ele>42.262573242188</ele>
        <time>2021-05-09T09:30:39Z</time>
      </trkpt>
      <trkpt lat="48.60299" lon="-2.50217">
        <ele>42.769836425781</ele>
        <time>2021-05-09T09:30:48Z</time>
      </trkpt>
      <trkpt lat="48.60306" lon="-2.50223">
        <ele>42.68994140625</ele>
        <time>2021-05-09T09:30:55Z</time>
      </trkpt>
      <trkpt lat="48.60311" lon="-2.50234">
        <ele>40.854858398438</ele>
        <time>2021-05-09T09:31:02Z</time>
      </trkpt>
      <trkpt lat="48.60316" lon="-2.50242">
        <ele>43.887573242188</ele>
        <time>2021-05-09T09:31:09Z</time>
      </trkpt>
      <trkpt lat="48.60319" lon="-2.50254">
        <ele>40.388854980469</ele>
        <time>2021-05-09T09:31:26Z</time>
      </trkpt>
      <trkpt lat="48.6032" lon="-2.50267">
        <ele>38.194763183594</ele>
        <time>2021-05-09T09:31:33Z</time>
      </trkpt>
      <trkpt lat="48.60327" lon="-2.50272">
        <ele>35.417602539062</ele>
        <time>2021-05-09T09:31:44Z</time>
      </trkpt>
      <trkpt lat="48.60334" lon="-2.50277">
        <ele>34.792236328125</ele>
        <time>2021-05-09T09:31:49Z</time>
      </trkpt>
      <trkpt lat="48.60347" lon="-2.5028">
        <ele>35.823608398438</ele>
        <time>2021-05-09T09:31:54Z</time>
      </trkpt>
      <trkpt lat="48.60355" lon="-2.50283">
        <ele>34.250854492188</ele>
        <time>2021-05-09T09:32:01Z</time>
      </trkpt>
      <trkpt lat="48.60364" lon="-2.50283">
        <ele>36.16259765625</ele>
        <time>2021-05-09T09:32:22Z</time>
      </trkpt>
      <trkpt lat="48.60371" lon="-2.50289">
        <ele>36.699035644531</ele>
        <time>2021-05-09T09:32:28Z</time>
      </trkpt>
      <trkpt lat="48.60378" lon="-2.50292">
        <ele>35.683227539062</ele>
        <time>2021-05-09T09:32:32Z</time>
      </trkpt>
      <trkpt lat="48.60388" lon="-2.50296">
        <ele>39.414306640625</ele>
        <time>2021-05-09T09:32:36Z</time>
      </trkpt>
      <trkpt lat="48.60397" lon="-2.50298">
        <ele>37.415954589844</ele>
        <time>2021-05-09T09:32:42Z</time>
      </trkpt>
      <trkpt lat="48.60406" lon="-2.50298">
        <ele>37.728088378906</ele>
        <time>2021-05-09T09:32:50Z</time>
      </trkpt>
      <trkpt lat="48.60414" lon="-2.50302">
        <ele>38.980163574219</ele>
        <time>2021-05-09T09:33:01Z</time>
      </trkpt>
      <trkpt lat="48.60421" lon="-2.5031">
        <ele>42.981079101562</ele>
        <time>2021-05-09T09:33:12Z</time>
      </trkpt>
      <trkpt lat="48.60428" lon="-2.50318">
        <ele>42.346374511719</ele>
        <time>2021-05-09T09:33:45Z</time>
      </trkpt>
      <trkpt lat="48.60432" lon="-2.50329">
        <ele>40.758911132812</ele>
        <time>2021-05-09T09:33:52Z</time>
      </trkpt>
      <trkpt lat="48.60438" lon="-2.50339">
        <ele>39.756652832031</ele>
        <time>2021-05-09T09:33:59Z</time>
      </trkpt>
      <trkpt lat="48.60444" lon="-2.50349">
        <ele>34.504943847656</ele>
        <time>2021-05-09T09:34:08Z</time>
      </trkpt>
      <trkpt lat="48.60445" lon="-2.50361">
        <ele>27.685546875</ele>
        <time>2021-05-09T09:35:42Z</time>
      </trkpt>
      <trkpt lat="48.6044" lon="-2.50372">
        <ele>27.360778808594</ele>
        <time>2021-05-09T09:35:48Z</time>
      </trkpt>
      <trkpt lat="48.60434" lon="-2.5038">
        <ele>28.951904296875</ele>
        <time>2021-05-09T09:35:55Z</time>
      </trkpt>
      <trkpt lat="48.6043" lon="-2.50391">
        <ele>29.463012695312</ele>
        <time>2021-05-09T09:36:03Z</time>
      </trkpt>
      <trkpt lat="48.60428" lon="-2.50404">
        <ele>31.75830078125</ele>
        <time>2021-05-09T09:36:10Z</time>
      </trkpt>
      <trkpt lat="48.60427" lon="-2.50416">
        <ele>30.580017089844</ele>
        <time>2021-05-09T09:36:17Z</time>
      </trkpt>
      <trkpt lat="48.60426" lon="-2.50428">
        <ele>29.120849609375</ele>
        <time>2021-05-09T09:36:24Z</time>
      </trkpt>
      <trkpt lat="48.60424" lon="-2.50439">
        <ele>30.052429199219</ele>
        <time>2021-05-09T09:36:29Z</time>
      </trkpt>
      <trkpt lat="48.60423" lon="-2.50451">
        <ele>27.697875976562</ele>
        <time>2021-05-09T09:36:37Z</time>
      </trkpt>
      <trkpt lat="48.60422" lon="-2.50463">
        <ele>29.091064453125</ele>
        <time>2021-05-09T09:36:44Z</time>
      </trkpt>
      <trkpt lat="48.60419" lon="-2.50476">
        <ele>30.543151855469</ele>
        <time>2021-05-09T09:36:51Z</time>
      </trkpt>
      <trkpt lat="48.60417" lon="-2.50488">
        <ele>31.758666992188</ele>
        <time>2021-05-09T09:36:56Z</time>
      </trkpt>
      <trkpt lat="48.60417" lon="-2.50501">
        <ele>29.916015625</ele>
        <time>2021-05-09T09:37:04Z</time>
      </trkpt>
      <trkpt lat="48.60415" lon="-2.50513">
        <ele>29.300842285156</ele>
        <time>2021-05-09T09:37:12Z</time>
      </trkpt>
      <trkpt lat="48.60412" lon="-2.50524">
        <ele>26.094787597656</ele>
        <time>2021-05-09T09:37:20Z</time>
      </trkpt>
      <trkpt lat="48.60409" lon="-2.50537">
        <ele>24.42919921875</ele>
        <time>2021-05-09T09:37:26Z</time>
      </trkpt>
      <trkpt lat="48.60411" lon="-2.50549">
        <ele>26.248962402344</ele>
        <time>2021-05-09T09:37:33Z</time>
      </trkpt>
      <trkpt lat="48.60408" lon="-2.50559">
        <ele>26.72509765625</ele>
        <time>2021-05-09T09:37:40Z</time>
      </trkpt>
      <trkpt lat="48.6041" lon="-2.5057">
        <ele>24.838073730469</ele>
        <time>2021-05-09T09:37:46Z</time>
      </trkpt>
      <trkpt lat="48.60406" lon="-2.50582">
        <ele>25.662231445312</ele>
        <time>2021-05-09T09:37:51Z</time>
      </trkpt>
      <trkpt lat="48.60404" lon="-2.50595">
        <ele>28.766174316406</ele>
        <time>2021-05-09T09:37:57Z</time>
      </trkpt>
      <trkpt lat="48.60402" lon="-2.50608">
        <ele>29.547485351562</ele>
        <time>2021-05-09T09:38:04Z</time>
      </trkpt>
      <trkpt lat="48.604" lon="-2.50621">
        <ele>28.849182128906</ele>
        <time>2021-05-09T09:38:11Z</time>
      </trkpt>
      <trkpt lat="48.60397" lon="-2.50632">
        <ele>29.854553222656</ele>
        <time>2021-05-09T09:38:19Z</time>
      </trkpt>
      <trkpt lat="48.60394" lon="-2.50644">
        <ele>30.062316894531</ele>
        <time>2021-05-09T09:38:25Z</time>
      </trkpt>
      <trkpt lat="48.60392" lon="-2.50657">
        <ele>29.368347167969</ele>
        <time>2021-05-09T09:38:32Z</time>
      </trkpt>
      <trkpt lat="48.6039" lon="-2.50669">
        <ele>32.140380859375</ele>
        <time>2021-05-09T09:38:39Z</time>
      </trkpt>
      <trkpt lat="48.60389" lon="-2.5068">
        <ele>30.316955566406</ele>
        <time>2021-05-09T09:38:46Z</time>
      </trkpt>
      <trkpt lat="48.60386" lon="-2.50693">
        <ele>30.0810546875</ele>
        <time>2021-05-09T09:38:54Z</time>
      </trkpt>
      <trkpt lat="48.60386" lon="-2.50707">
        <ele>29.164978027344</ele>
        <time>2021-05-09T09:39:04Z</time>
      </trkpt>
      <trkpt lat="48.60384" lon="-2.50719">
        <ele>31.603088378906</ele>
        <time>2021-05-09T09:39:11Z</time>
      </trkpt>
      <trkpt lat="48.60381" lon="-2.5073">
        <ele>31.102233886719</ele>
        <time>2021-05-09T09:39:18Z</time>
      </trkpt>
      <trkpt lat="48.6038" lon="-2.50742">
        <ele>31.399841308594</ele>
        <time>2021-05-09T09:39:23Z</time>
      </trkpt>
      <trkpt lat="48.60376" lon="-2.50753">
        <ele>29.171203613281</ele>
        <time>2021-05-09T09:39:29Z</time>
      </trkpt>
      <trkpt lat="48.60373" lon="-2.50766">
        <ele>28.462280273438</ele>
        <time>2021-05-09T09:39:40Z</time>
      </trkpt>
      <trkpt lat="48.60368" lon="-2.50776">
        <ele>29.955871582031</ele>
        <time>2021-05-09T09:39:51Z</time>
      </trkpt>
      <trkpt lat="48.60369" lon="-2.50789">
        <ele>36.764892578125</ele>
        <time>2021-05-09T09:39:58Z</time>
      </trkpt>
      <trkpt lat="48.60369" lon="-2.508">
        <ele>34.397216796875</ele>
        <time>2021-05-09T09:40:04Z</time>
      </trkpt>
      <trkpt lat="48.60366" lon="-2.50812">
        <ele>34.9755859375</ele>
        <time>2021-05-09T09:40:13Z</time>
      </trkpt>
      <trkpt lat="48.60365" lon="-2.50825">
        <ele>34.254760742188</ele>
        <time>2021-05-09T09:40:22Z</time>
      </trkpt>
      <trkpt lat="48.6036" lon="-2.50836">
        <ele>35.273559570312</ele>
        <time>2021-05-09T09:40:28Z</time>
      </trkpt>
      <trkpt lat="48.60358" lon="-2.50849">
        <ele>35.940185546875</ele>
        <time>2021-05-09T09:40:35Z</time>
      </trkpt>
      <trkpt lat="48.60355" lon="-2.50861">
        <ele>38.155212402344</ele>
        <time>2021-05-09T09:40:42Z</time>
      </trkpt>
      <trkpt lat="48.60352" lon="-2.50871">
        <ele>39.991516113281</ele>
        <time>2021-05-09T09:40:48Z</time>
      </trkpt>
      <trkpt lat="48.60349" lon="-2.50884">
        <ele>39.923583984375</ele>
        <time>2021-05-09T09:40:56Z</time>
      </trkpt>
      <trkpt lat="48.60344" lon="-2.50895">
        <ele>39.336608886719</ele>
        <time>2021-05-09T09:41:13Z</time>
      </trkpt>
      <trkpt lat="48.60344" lon="-2.50907">
        <ele>36.75439453125</ele>
        <time>2021-05-09T09:41:25Z</time>
      </trkpt>
      <trkpt lat="48.60341" lon="-2.50919">
        <ele>36.798217773438</ele>
        <time>2021-05-09T09:41:34Z</time>
      </trkpt>
      <trkpt lat="48.6034" lon="-2.50931">
        <ele>38.6416015625</ele>
        <time>2021-05-09T09:41:42Z</time>
      </trkpt>
      <trkpt lat="48.6034" lon="-2.50945">
        <ele>37.219482421875</ele>
        <time>2021-05-09T09:41:50Z</time>
      </trkpt>
      <trkpt lat="48.60337" lon="-2.50958">
        <ele>31.701904296875</ele>
        <time>2021-05-09T09:42:00Z</time>
      </trkpt>
      <trkpt lat="48.60334" lon="-2.50969">
        <ele>30.50439453125</ele>
        <time>2021-05-09T09:42:09Z</time>
      </trkpt>
      <trkpt lat="48.60331" lon="-2.50981">
        <ele>29.4189453125</ele>
        <time>2021-05-09T09:42:17Z</time>
      </trkpt>
      <trkpt lat="48.60326" lon="-2.50991">
        <ele>28.196105957031</ele>
        <time>2021-05-09T09:42:26Z</time>
      </trkpt>
      <trkpt lat="48.60321" lon="-2.51002">
        <ele>29.486145019531</ele>
        <time>2021-05-09T09:42:34Z</time>
      </trkpt>
      <trkpt lat="48.60317" lon="-2.51014">
        <ele>29.611328125</ele>
        <time>2021-05-09T09:42:41Z</time>
      </trkpt>
      <trkpt lat="48.60315" lon="-2.51027">
        <ele>28.51220703125</ele>
        <time>2021-05-09T09:42:49Z</time>
      </trkpt>
      <trkpt lat="48.60313" lon="-2.51039">
        <ele>30.538940429688</ele>
        <time>2021-05-09T09:42:55Z</time>
      </trkpt>
      <trkpt lat="48.60306" lon="-2.51046">
        <ele>26.985595703125</ele>
        <time>2021-05-09T09:43:06Z</time>
      </trkpt>
      <trkpt lat="48.60301" lon="-2.51056">
        <ele>26.4326171875</ele>
        <time>2021-05-09T09:43:13Z</time>
      </trkpt>
      <trkpt lat="48.60297" lon="-2.51066">
        <ele>28.901062011719</ele>
        <time>2021-05-09T09:43:20Z</time>
      </trkpt>
      <trkpt lat="48.60296" lon="-2.5108">
        <ele>26.933837890625</ele>
        <time>2021-05-09T09:43:28Z</time>
      </trkpt>
      <trkpt lat="48.60294" lon="-2.51093">
        <ele>28.126586914062</ele>
        <time>2021-05-09T09:43:35Z</time>
      </trkpt>
      <trkpt lat="48.6029" lon="-2.51104">
        <ele>26.910217285156</ele>
        <time>2021-05-09T09:43:40Z</time>
      </trkpt>
      <trkpt lat="48.60287" lon="-2.51116">
        <ele>23.382995605469</ele>
        <time>2021-05-09T09:43:48Z</time>
      </trkpt>
      <trkpt lat="48.60282" lon="-2.51125">
        <ele>26.784545898438</ele>
        <time>2021-05-09T09:43:54Z</time>
      </trkpt>
      <trkpt lat="48.6028" lon="-2.51137">
        <ele>25.506591796875</ele>
        <time>2021-05-09T09:44:02Z</time>
      </trkpt>
      <trkpt lat="48.60277" lon="-2.51149">
        <ele>26.096069335938</ele>
        <time>2021-05-09T09:44:09Z</time>
      </trkpt>
      <trkpt lat="48.60272" lon="-2.51159">
        <ele>26.349487304688</ele>
        <time>2021-05-09T09:44:15Z</time>
      </trkpt>
      <trkpt lat="48.60267" lon="-2.5117">
        <ele>25.652038574219</ele>
        <time>2021-05-09T09:44:21Z</time>
      </trkpt>
      <trkpt lat="48.60261" lon="-2.5118">
        <ele>25.789428710938</ele>
        <time>2021-05-09T09:44:28Z</time>
      </trkpt>
      <trkpt lat="48.60256" lon="-2.5119">
        <ele>23.708374023438</ele>
        <time>2021-05-09T09:44:35Z</time>
      </trkpt>
      <trkpt lat="48.60249" lon="-2.51197">
        <ele>24.196411132812</ele>
        <time>2021-05-09T09:44:41Z</time>
      </trkpt>
      <trkpt lat="48.60245" lon="-2.51209">
        <ele>26.996337890625</ele>
        <time>2021-05-09T09:44:49Z</time>
      </trkpt>
      <trkpt lat="48.6024" lon="-2.5122">
        <ele>29.566101074219</ele>
        <time>2021-05-09T09:44:59Z</time>
      </trkpt>
      <trkpt lat="48.60234" lon="-2.51229">
        <ele>29.321166992188</ele>
        <time>2021-05-09T09:45:08Z</time>
      </trkpt>
      <trkpt lat="48.60228" lon="-2.51238">
        <ele>27.92138671875</ele>
        <time>2021-05-09T09:45:14Z</time>
      </trkpt>
      <trkpt lat="48.60225" lon="-2.51249">
        <ele>28.09423828125</ele>
        <time>2021-05-09T09:45:22Z</time>
      </trkpt>
      <trkpt lat="48.60224" lon="-2.51262">
        <ele>27.414123535156</ele>
        <time>2021-05-09T09:45:26Z</time>
      </trkpt>
      <trkpt lat="48.60222" lon="-2.51273">
        <ele>26.299194335938</ele>
        <time>2021-05-09T09:45:32Z</time>
      </trkpt>
      <trkpt lat="48.60223" lon="-2.51286">
        <ele>26.960998535156</ele>
        <time>2021-05-09T09:45:39Z</time>
      </trkpt>
      <trkpt lat="48.60223" lon="-2.51299">
        <ele>27.182495117188</ele>
        <time>2021-05-09T09:45:45Z</time>
      </trkpt>
      <trkpt lat="48.60219" lon="-2.5131">
        <ele>28.947509765625</ele>
        <time>2021-05-09T09:45:51Z</time>
      </trkpt>
      <trkpt lat="48.60215" lon="-2.5132">
        <ele>27.837707519531</ele>
        <time>2021-05-09T09:45:59Z</time>
      </trkpt>
      <trkpt lat="48.60211" lon="-2.51331">
        <ele>26.650695800781</ele>
        <time>2021-05-09T09:46:07Z</time>
      </trkpt>
      <trkpt lat="48.60209" lon="-2.51343">
        <ele>22.645751953125</ele>
        <time>2021-05-09T09:46:14Z</time>
      </trkpt>
      <trkpt lat="48.60206" lon="-2.51352">
        <ele>25.221557617188</ele>
        <time>2021-05-09T09:46:19Z</time>
      </trkpt>
      <trkpt lat="48.602" lon="-2.51361">
        <ele>24.403503417969</ele>
        <time>2021-05-09T09:46:26Z</time>
      </trkpt>
      <trkpt lat="48.60196" lon="-2.51373">
        <ele>28.472534179688</ele>
        <time>2021-05-09T09:46:33Z</time>
      </trkpt>
      <trkpt lat="48.6019" lon="-2.51381">
        <ele>26.455139160156</ele>
        <time>2021-05-09T09:46:41Z</time>
      </trkpt>
      <trkpt lat="48.60187" lon="-2.51392">
        <ele>27.875671386719</ele>
        <time>2021-05-09T09:46:49Z</time>
      </trkpt>
      <trkpt lat="48.6018" lon="-2.51398">
        <ele>28.92333984375</ele>
        <time>2021-05-09T09:46:56Z</time>
      </trkpt>
      <trkpt lat="48.60175" lon="-2.5141">
        <ele>24.71142578125</ele>
        <time>2021-05-09T09:47:06Z</time>
      </trkpt>
      <trkpt lat="48.6017" lon="-2.51421">
        <ele>22.646545410156</ele>
        <time>2021-05-09T09:47:14Z</time>
      </trkpt>
      <trkpt lat="48.60171" lon="-2.51433">
        <ele>22.600036621094</ele>
        <time>2021-05-09T09:47:21Z</time>
      </trkpt>
      <trkpt lat="48.60167" lon="-2.51445">
        <ele>20.787414550781</ele>
        <time>2021-05-09T09:47:29Z</time>
      </trkpt>
      <trkpt lat="48.6016" lon="-2.51455">
        <ele>23.113647460938</ele>
        <time>2021-05-09T09:47:38Z</time>
      </trkpt>
      <trkpt lat="48.60158" lon="-2.51467">
        <ele>23.721740722656</ele>
        <time>2021-05-09T09:47:45Z</time>
      </trkpt>
      <trkpt lat="48.60155" lon="-2.51478">
        <ele>26.036499023438</ele>
        <time>2021-05-09T09:47:53Z</time>
      </trkpt>
      <trkpt lat="48.60157" lon="-2.51491">
        <ele>23.332397460938</ele>
        <time>2021-05-09T09:48:01Z</time>
      </trkpt>
      <trkpt lat="48.60159" lon="-2.51504">
        <ele>21.61767578125</ele>
        <time>2021-05-09T09:48:11Z</time>
      </trkpt>
      <trkpt lat="48.60157" lon="-2.51516">
        <ele>22.675842285156</ele>
        <time>2021-05-09T09:48:16Z</time>
      </trkpt>
      <trkpt lat="48.60155" lon="-2.51528">
        <ele>22.97607421875</ele>
        <time>2021-05-09T09:48:23Z</time>
      </trkpt>
      <trkpt lat="48.60154" lon="-2.5154">
        <ele>24.338317871094</ele>
        <time>2021-05-09T09:48:29Z</time>
      </trkpt>
      <trkpt lat="48.60152" lon="-2.51553">
        <ele>22.578063964844</ele>
        <time>2021-05-09T09:48:35Z</time>
      </trkpt>
      <trkpt lat="48.60149" lon="-2.51565">
        <ele>23.011291503906</ele>
        <time>2021-05-09T09:48:43Z</time>
      </trkpt>
      <trkpt lat="48.60144" lon="-2.51574">
        <ele>20.330444335938</ele>
        <time>2021-05-09T09:48:50Z</time>
      </trkpt>
      <trkpt lat="48.6014" lon="-2.51585">
        <ele>22.211791992188</ele>
        <time>2021-05-09T09:48:56Z</time>
      </trkpt>
      <trkpt lat="48.60135" lon="-2.51595">
        <ele>21.140014648438</ele>
        <time>2021-05-09T09:49:02Z</time>
      </trkpt>
      <trkpt lat="48.60134" lon="-2.51606">
        <ele>22.972839355469</ele>
        <time>2021-05-09T09:49:08Z</time>
      </trkpt>
      <trkpt lat="48.60133" lon="-2.51618">
        <ele>23.691467285156</ele>
        <time>2021-05-09T09:49:15Z</time>
      </trkpt>
      <trkpt lat="48.60133" lon="-2.51631">
        <ele>23.373107910156</ele>
        <time>2021-05-09T09:49:22Z</time>
      </trkpt>
      <trkpt lat="48.6013" lon="-2.51643">
        <ele>23.626403808594</ele>
        <time>2021-05-09T09:49:30Z</time>
      </trkpt>
      <trkpt lat="48.60126" lon="-2.51655">
        <ele>23.180969238281</ele>
        <time>2021-05-09T09:49:36Z</time>
      </trkpt>
      <trkpt lat="48.60121" lon="-2.51665">
        <ele>24.165588378906</ele>
        <time>2021-05-09T09:49:42Z</time>
      </trkpt>
      <trkpt lat="48.60117" lon="-2.51676">
        <ele>23.366943359375</ele>
        <time>2021-05-09T09:49:50Z</time>
      </trkpt>
      <trkpt lat="48.60112" lon="-2.51686">
        <ele>22.142578125</ele>
        <time>2021-05-09T09:49:57Z</time>
      </trkpt>
      <trkpt lat="48.60109" lon="-2.51698">
        <ele>23.985046386719</ele>
        <time>2021-05-09T09:50:03Z</time>
      </trkpt>
      <trkpt lat="48.60104" lon="-2.51708">
        <ele>22.906982421875</ele>
        <time>2021-05-09T09:50:08Z</time>
      </trkpt>
      <trkpt lat="48.60103" lon="-2.51719">
        <ele>24.284484863281</ele>
        <time>2021-05-09T09:50:23Z</time>
      </trkpt>
      <trkpt lat="48.601" lon="-2.51731">
        <ele>23.433288574219</ele>
        <time>2021-05-09T09:50:30Z</time>
      </trkpt>
      <trkpt lat="48.60097" lon="-2.51743">
        <ele>23.652160644531</ele>
        <time>2021-05-09T09:50:37Z</time>
      </trkpt>
      <trkpt lat="48.60094" lon="-2.51755">
        <ele>23.280944824219</ele>
        <time>2021-05-09T09:50:43Z</time>
      </trkpt>
      <trkpt lat="48.60089" lon="-2.51766">
        <ele>23.010559082031</ele>
        <time>2021-05-09T09:50:50Z</time>
      </trkpt>
      <trkpt lat="48.60085" lon="-2.51776">
        <ele>23.251403808594</ele>
        <time>2021-05-09T09:50:57Z</time>
      </trkpt>
      <trkpt lat="48.6008" lon="-2.51787">
        <ele>26.278015136719</ele>
        <time>2021-05-09T09:51:05Z</time>
      </trkpt>
      <trkpt lat="48.60075" lon="-2.51796">
        <ele>27.729431152344</ele>
        <time>2021-05-09T09:51:11Z</time>
      </trkpt>
      <trkpt lat="48.6007" lon="-2.51806">
        <ele>27.276550292969</ele>
        <time>2021-05-09T09:51:18Z</time>
      </trkpt>
      <trkpt lat="48.60065" lon="-2.51816">
        <ele>26.664611816406</ele>
        <time>2021-05-09T09:51:26Z</time>
      </trkpt>
      <trkpt lat="48.60059" lon="-2.51822">
        <ele>25.8232421875</ele>
        <time>2021-05-09T09:51:32Z</time>
      </trkpt>
      <trkpt lat="48.60051" lon="-2.51825">
        <ele>28.295288085938</ele>
        <time>2021-05-09T09:51:38Z</time>
      </trkpt>
      <trkpt lat="48.6005" lon="-2.51838">
        <ele>28.852416992188</ele>
        <time>2021-05-09T09:51:46Z</time>
      </trkpt>
      <trkpt lat="48.60048" lon="-2.5185">
        <ele>28.399719238281</ele>
        <time>2021-05-09T09:51:56Z</time>
      </trkpt>
      <trkpt lat="48.60042" lon="-2.5186">
        <ele>28.624938964844</ele>
        <time>2021-05-09T09:52:04Z</time>
      </trkpt>
      <trkpt lat="48.60043" lon="-2.51873">
        <ele>29.055725097656</ele>
        <time>2021-05-09T09:52:13Z</time>
      </trkpt>
      <trkpt lat="48.60038" lon="-2.51884">
        <ele>28.505310058594</ele>
        <time>2021-05-09T09:52:18Z</time>
      </trkpt>
      <trkpt lat="48.60033" lon="-2.51894">
        <ele>29.086303710938</ele>
        <time>2021-05-09T09:52:26Z</time>
      </trkpt>
      <trkpt lat="48.60031" lon="-2.51906">
        <ele>32.866943359375</ele>
        <time>2021-05-09T09:52:33Z</time>
      </trkpt>
      <trkpt lat="48.60028" lon="-2.51918">
        <ele>30.760803222656</ele>
        <time>2021-05-09T09:52:42Z</time>
      </trkpt>
      <trkpt lat="48.60024" lon="-2.51929">
        <ele>28.770263671875</ele>
        <time>2021-05-09T09:52:52Z</time>
      </trkpt>
      <trkpt lat="48.60021" lon="-2.5194">
        <ele>32.673950195312</ele>
        <time>2021-05-09T09:52:59Z</time>
      </trkpt>
      <trkpt lat="48.60019" lon="-2.51951">
        <ele>33.743896484375</ele>
        <time>2021-05-09T09:53:06Z</time>
      </trkpt>
      <trkpt lat="48.60016" lon="-2.51963">
        <ele>35.257751464844</ele>
        <time>2021-05-09T09:53:13Z</time>
      </trkpt>
      <trkpt lat="48.6001" lon="-2.51972">
        <ele>31.112609863281</ele>
        <time>2021-05-09T09:53:21Z</time>
      </trkpt>
      <trkpt lat="48.60005" lon="-2.51983">
        <ele>34.272216796875</ele>
        <time>2021-05-09T09:53:44Z</time>
      </trkpt>
      <trkpt lat="48.60003" lon="-2.51994">
        <ele>35.200073242188</ele>
        <time>2021-05-09T09:53:52Z</time>
      </trkpt>
      <trkpt lat="48.60003" lon="-2.52008">
        <ele>34.577392578125</ele>
        <time>2021-05-09T09:54:00Z</time>
      </trkpt>
      <trkpt lat="48.59999" lon="-2.5202">
        <ele>36.986206054688</ele>
        <time>2021-05-09T09:54:08Z</time>
      </trkpt>
      <trkpt lat="48.59995" lon="-2.52031">
        <ele>36.864135742188</ele>
        <time>2021-05-09T09:54:17Z</time>
      </trkpt>
      <trkpt lat="48.59993" lon="-2.52044">
        <ele>38.180297851562</ele>
        <time>2021-05-09T09:54:24Z</time>
      </trkpt>
      <trkpt lat="48.59991" lon="-2.52057">
        <ele>37.9697265625</ele>
        <time>2021-05-09T09:54:32Z</time>
      </trkpt>
      <trkpt lat="48.59989" lon="-2.5207">
        <ele>40.972351074219</ele>
        <time>2021-05-09T09:54:51Z</time>
      </trkpt>
      <trkpt lat="48.59987" lon="-2.52083">
        <ele>37.717224121094</ele>
        <time>2021-05-09T09:54:59Z</time>
      </trkpt>
      <trkpt lat="48.59991" lon="-2.52095">
        <ele>43.397277832031</ele>
        <time>2021-05-09T09:55:11Z</time>
      </trkpt>
      <trkpt lat="48.59994" lon="-2.52107">
        <ele>46.080444335938</ele>
        <time>2021-05-09T09:55:20Z</time>
      </trkpt>
      <trkpt lat="48.59995" lon="-2.52119">
        <ele>45.919128417969</ele>
        <time>2021-05-09T09:55:26Z</time>
      </trkpt>
      <trkpt lat="48.59999" lon="-2.52131">
        <ele>43.375793457031</ele>
        <time>2021-05-09T09:55:37Z</time>
      </trkpt>
      <trkpt lat="48.59999" lon="-2.52144">
        <ele>42.948486328125</ele>
        <time>2021-05-09T09:55:45Z</time>
      </trkpt>
      <trkpt lat="48.59999" lon="-2.52157">
        <ele>42.1552734375</ele>
        <time>2021-05-09T09:55:56Z</time>
      </trkpt>
      <trkpt lat="48.59999" lon="-2.52171">
        <ele>38.988098144531</ele>
        <time>2021-05-09T09:56:07Z</time>
      </trkpt>
      <trkpt lat="48.59997" lon="-2.52181">
        <ele>37.711486816406</ele>
        <time>2021-05-09T09:56:13Z</time>
      </trkpt>
      <trkpt lat="48.59996" lon="-2.52193">
        <ele>37.59423828125</ele>
        <time>2021-05-09T09:56:19Z</time>
      </trkpt>
      <trkpt lat="48.59994" lon="-2.52206">
        <ele>34.118103027344</ele>
        <time>2021-05-09T09:56:28Z</time>
      </trkpt>
      <trkpt lat="48.59991" lon="-2.52217">
        <ele>35.642944335938</ele>
        <time>2021-05-09T09:56:33Z</time>
      </trkpt>
      <trkpt lat="48.59989" lon="-2.52229">
        <ele>32.9501953125</ele>
        <time>2021-05-09T09:56:41Z</time>
      </trkpt>
      <trkpt lat="48.59982" lon="-2.52237">
        <ele>34.540649414062</ele>
        <time>2021-05-09T09:56:48Z</time>
      </trkpt>
      <trkpt lat="48.59975" lon="-2.52242">
        <ele>35.820434570312</ele>
        <time>2021-05-09T09:56:55Z</time>
      </trkpt>
      <trkpt lat="48.59968" lon="-2.52251">
        <ele>35.309692382812</ele>
        <time>2021-05-09T09:57:03Z</time>
      </trkpt>
      <trkpt lat="48.59961" lon="-2.52258">
        <ele>37.067321777344</ele>
        <time>2021-05-09T09:57:09Z</time>
      </trkpt>
      <trkpt lat="48.59954" lon="-2.52265">
        <ele>38.621337890625</ele>
        <time>2021-05-09T09:57:18Z</time>
      </trkpt>
      <trkpt lat="48.59946" lon="-2.52273">
        <ele>36.735534667969</ele>
        <time>2021-05-09T09:57:27Z</time>
      </trkpt>
      <trkpt lat="48.59939" lon="-2.5228">
        <ele>33.917907714844</ele>
        <time>2021-05-09T09:57:36Z</time>
      </trkpt>
      <trkpt lat="48.59933" lon="-2.52287">
        <ele>33.83447265625</ele>
        <time>2021-05-09T09:57:42Z</time>
      </trkpt>
      <trkpt lat="48.59926" lon="-2.52295">
        <ele>29.524963378906</ele>
        <time>2021-05-09T09:57:51Z</time>
      </trkpt>
      <trkpt lat="48.5992" lon="-2.52304">
        <ele>31.045776367188</ele>
        <time>2021-05-09T09:57:58Z</time>
      </trkpt>
      <trkpt lat="48.59914" lon="-2.52314">
        <ele>31.583984375</ele>
        <time>2021-05-09T09:58:04Z</time>
      </trkpt>
      <trkpt lat="48.59918" lon="-2.52326">
        <ele>29.706909179688</ele>
        <time>2021-05-09T09:58:14Z</time>
      </trkpt>
      <trkpt lat="48.59921" lon="-2.52338">
        <ele>24.331176757812</ele>
        <time>2021-05-09T09:58:29Z</time>
      </trkpt>
      <trkpt lat="48.59921" lon="-2.52351">
        <ele>23.369995117188</ele>
        <time>2021-05-09T09:58:37Z</time>
      </trkpt>
      <trkpt lat="48.5992" lon="-2.52363">
        <ele>24.374877929688</ele>
        <time>2021-05-09T09:58:44Z</time>
      </trkpt>
      <trkpt lat="48.59918" lon="-2.52374">
        <ele>28.256164550781</ele>
        <time>2021-05-09T09:58:51Z</time>
      </trkpt>
      <trkpt lat="48.59914" lon="-2.52385">
        <ele>22.789978027344</ele>
        <time>2021-05-09T09:58:57Z</time>
      </trkpt>
      <trkpt lat="48.59911" lon="-2.52396">
        <ele>25.37158203125</ele>
        <time>2021-05-09T09:59:08Z</time>
      </trkpt>
      <trkpt lat="48.59907" lon="-2.52409">
        <ele>27.068969726562</ele>
        <time>2021-05-09T09:59:16Z</time>
      </trkpt>
      <trkpt lat="48.59907" lon="-2.5242">
        <ele>24.560852050781</ele>
        <time>2021-05-09T09:59:27Z</time>
      </trkpt>
      <trkpt lat="48.59903" lon="-2.52432">
        <ele>23.452575683594</ele>
        <time>2021-05-09T09:59:40Z</time>
      </trkpt>
      <trkpt lat="48.599" lon="-2.52443">
        <ele>23.601684570312</ele>
        <time>2021-05-09T09:59:47Z</time>
      </trkpt>
      <trkpt lat="48.59897" lon="-2.52454">
        <ele>21.990356445312</ele>
        <time>2021-05-09T09:59:55Z</time>
      </trkpt>
      <trkpt lat="48.59894" lon="-2.52465">
        <ele>21.73974609375</ele>
        <time>2021-05-09T10:00:03Z</time>
      </trkpt>
      <trkpt lat="48.5989" lon="-2.52476">
        <ele>21.096618652344</ele>
        <time>2021-05-09T10:00:10Z</time>
      </trkpt>
      <trkpt lat="48.59883" lon="-2.52484">
        <ele>21.265747070312</ele>
        <time>2021-05-09T10:00:22Z</time>
      </trkpt>
      <trkpt lat="48.59881" lon="-2.52495">
        <ele>20.594970703125</ele>
        <time>2021-05-09T10:00:31Z</time>
      </trkpt>
      <trkpt lat="48.59879" lon="-2.52509">
        <ele>21.126831054688</ele>
        <time>2021-05-09T10:00:38Z</time>
      </trkpt>
      <trkpt lat="48.59875" lon="-2.5252">
        <ele>17.924621582031</ele>
        <time>2021-05-09T10:00:49Z</time>
      </trkpt>
      <trkpt lat="48.59878" lon="-2.52532">
        <ele>17.24462890625</ele>
        <time>2021-05-09T10:01:00Z</time>
      </trkpt>
      <trkpt lat="48.59873" lon="-2.52543">
        <ele>16.783874511719</ele>
        <time>2021-05-09T10:01:09Z</time>
      </trkpt>
      <trkpt lat="48.5987" lon="-2.52556">
        <ele>15.625366210938</ele>
        <time>2021-05-09T10:01:20Z</time>
      </trkpt>
      <trkpt lat="48.59868" lon="-2.52567">
        <ele>16.575378417969</ele>
        <time>2021-05-09T10:01:27Z</time>
      </trkpt>
      <trkpt lat="48.59863" lon="-2.52578">
        <ele>16.540771484375</ele>
        <time>2021-05-09T10:01:35Z</time>
      </trkpt>
      <trkpt lat="48.59865" lon="-2.52591">
        <ele>14.304809570312</ele>
        <time>2021-05-09T10:01:47Z</time>
      </trkpt>
      <trkpt lat="48.59868" lon="-2.52603">
        <ele>13.476928710938</ele>
        <time>2021-05-09T10:01:59Z</time>
      </trkpt>
      <trkpt lat="48.59868" lon="-2.52616">
        <ele>9.3978271484375</ele>
        <time>2021-05-09T10:03:33Z</time>
      </trkpt>
      <trkpt lat="48.59862" lon="-2.52625">
        <ele>10.195617675781</ele>
        <time>2021-05-09T10:03:43Z</time>
      </trkpt>
      <trkpt lat="48.59856" lon="-2.52635">
        <ele>9.9945678710938</ele>
        <time>2021-05-09T10:03:53Z</time>
      </trkpt>
      <trkpt lat="48.59854" lon="-2.52648">
        <ele>8.805908203125</ele>
        <time>2021-05-09T10:04:37Z</time>
      </trkpt>
      <trkpt lat="48.59851" lon="-2.5266">
        <ele>10.420959472656</ele>
        <time>2021-05-09T10:04:48Z</time>
      </trkpt>
      <trkpt lat="48.5985" lon="-2.52672">
        <ele>9.918701171875</ele>
        <time>2021-05-09T10:04:56Z</time>
      </trkpt>
      <trkpt lat="48.59846" lon="-2.52684">
        <ele>12.427795410156</ele>
        <time>2021-05-09T10:05:04Z</time>
      </trkpt>
      <trkpt lat="48.59844" lon="-2.52695">
        <ele>11.921020507812</ele>
        <time>2021-05-09T10:05:15Z</time>
      </trkpt>
      <trkpt lat="48.59841" lon="-2.52707">
        <ele>12.719482421875</ele>
        <time>2021-05-09T10:05:22Z</time>
      </trkpt>
      <trkpt lat="48.59838" lon="-2.52718">
        <ele>12.580078125</ele>
        <time>2021-05-09T10:05:33Z</time>
      </trkpt>
      <trkpt lat="48.59834" lon="-2.52728">
        <ele>9.843994140625</ele>
        <time>2021-05-09T10:05:41Z</time>
      </trkpt>
      <trkpt lat="48.5983" lon="-2.52739">
        <ele>9.61376953125</ele>
        <time>2021-05-09T10:05:47Z</time>
      </trkpt>
      <trkpt lat="48.59827" lon="-2.52751">
        <ele>10.598388671875</ele>
        <time>2021-05-09T10:05:54Z</time>
      </trkpt>
      <trkpt lat="48.59823" lon="-2.52762">
        <ele>10.581359863281</ele>
        <time>2021-05-09T10:06:02Z</time>
      </trkpt>
      <trkpt lat="48.5982" lon="-2.52774">
        <ele>8.6026000976562</ele>
        <time>2021-05-09T10:06:10Z</time>
      </trkpt>
      <trkpt lat="48.59816" lon="-2.52785">
        <ele>6.8599243164062</ele>
        <time>2021-05-09T10:06:19Z</time>
      </trkpt>
      <trkpt lat="48.59812" lon="-2.52797">
        <ele>8.3300170898438</ele>
        <time>2021-05-09T10:06:27Z</time>
      </trkpt>
      <trkpt lat="48.59808" lon="-2.52808">
        <ele>6.9542846679688</ele>
        <time>2021-05-09T10:06:36Z</time>
      </trkpt>
      <trkpt lat="48.59806" lon="-2.5282">
        <ele>7.09716796875</ele>
        <time>2021-05-09T10:06:45Z</time>
      </trkpt>
      <trkpt lat="48.59804" lon="-2.52833">
        <ele>6.7506713867188</ele>
        <time>2021-05-09T10:06:52Z</time>
      </trkpt>
      <trkpt lat="48.59801" lon="-2.52845">
        <ele>6.2499389648438</ele>
        <time>2021-05-09T10:06:59Z</time>
      </trkpt>
      <trkpt lat="48.59797" lon="-2.52857">
        <ele>5.70947265625</ele>
        <time>2021-05-09T10:07:06Z</time>
      </trkpt>
      <trkpt lat="48.59795" lon="-2.5287">
        <ele>8.3575439453125</ele>
        <time>2021-05-09T10:07:15Z</time>
      </trkpt>
      <trkpt lat="48.59789" lon="-2.52879">
        <ele>7.6376953125</ele>
        <time>2021-05-09T10:07:23Z</time>
      </trkpt>
      <trkpt lat="48.59785" lon="-2.52889">
        <ele>6.0314331054688</ele>
        <time>2021-05-09T10:07:30Z</time>
      </trkpt>
      <trkpt lat="48.59782" lon="-2.52901">
        <ele>7.0681762695312</ele>
        <time>2021-05-09T10:07:37Z</time>
      </trkpt>
      <trkpt lat="48.59779" lon="-2.52913">
        <ele>4.1489868164062</ele>
        <time>2021-05-09T10:07:45Z</time>
      </trkpt>
      <trkpt lat="48.59777" lon="-2.52925">
        <ele>5.225830078125</ele>
        <time>2021-05-09T10:07:52Z</time>
      </trkpt>
      <trkpt lat="48.59774" lon="-2.52937">
        <ele>6.0499877929688</ele>
        <time>2021-05-09T10:08:00Z</time>
      </trkpt>
      <trkpt lat="48.5977" lon="-2.52949">
        <ele>7.6744384765625</ele>
        <time>2021-05-09T10:08:13Z</time>
      </trkpt>
      <trkpt lat="48.59767" lon="-2.52961">
        <ele>7.0299072265625</ele>
        <time>2021-05-09T10:08:26Z</time>
      </trkpt>
      <trkpt lat="48.59764" lon="-2.52973">
        <ele>8.0596313476562</ele>
        <time>2021-05-09T10:08:33Z</time>
      </trkpt>
      <trkpt lat="48.59766" lon="-2.52985">
        <ele>9.5213623046875</ele>
        <time>2021-05-09T10:08:59Z</time>
      </trkpt>
      <trkpt lat="48.5977" lon="-2.52996">
        <ele>11.151611328125</ele>
        <time>2021-05-09T10:09:06Z</time>
      </trkpt>
      <trkpt lat="48.59772" lon="-2.53009">
        <ele>10.4716796875</ele>
        <time>2021-05-09T10:09:14Z</time>
      </trkpt>
      <trkpt lat="48.59775" lon="-2.53021">
        <ele>6.7587890625</ele>
        <time>2021-05-09T10:09:24Z</time>
      </trkpt>
      <trkpt lat="48.5978" lon="-2.53032">
        <ele>5.5939331054688</ele>
        <time>2021-05-09T10:09:33Z</time>
      </trkpt>
      <trkpt lat="48.59783" lon="-2.53043">
        <ele>6.36279296875</ele>
        <time>2021-05-09T10:09:39Z</time>
      </trkpt>
      <trkpt lat="48.59784" lon="-2.53054">
        <ele>4.9939575195312</ele>
        <time>2021-05-09T10:09:46Z</time>
      </trkpt>
      <trkpt lat="48.59786" lon="-2.53066">
        <ele>4.9722900390625</ele>
        <time>2021-05-09T10:09:53Z</time>
      </trkpt>
      <trkpt lat="48.59788" lon="-2.53078">
        <ele>5.766845703125</ele>
        <time>2021-05-09T10:09:59Z</time>
      </trkpt>
      <trkpt lat="48.5979" lon="-2.53089">
        <ele>5.9888916015625</ele>
        <time>2021-05-09T10:10:06Z</time>
      </trkpt>
      <trkpt lat="48.59791" lon="-2.53101">
        <ele>6.6295166015625</ele>
        <time>2021-05-09T10:10:10Z</time>
      </trkpt>
      <trkpt lat="48.59793" lon="-2.53111">
        <ele>5.269775390625</ele>
        <time>2021-05-09T10:10:17Z</time>
      </trkpt>
      <trkpt lat="48.59794" lon="-2.53123">
        <ele>4.752197265625</ele>
        <time>2021-05-09T10:10:24Z</time>
      </trkpt>
      <trkpt lat="48.59796" lon="-2.53136">
        <ele>3.3868408203125</ele>
        <time>2021-05-09T10:10:30Z</time>
      </trkpt>
      <trkpt lat="48.59796" lon="-2.53148">
        <ele>3.5115966796875</ele>
        <time>2021-05-09T10:10:36Z</time>
      </trkpt>
      <trkpt lat="48.59793" lon="-2.5316">
        <ele>2.306396484375</ele>
        <time>2021-05-09T10:10:43Z</time>
      </trkpt>
      <trkpt lat="48.59796" lon="-2.53172">
        <ele>2.6703491210938</ele>
        <time>2021-05-09T10:10:50Z</time>
      </trkpt>
      <trkpt lat="48.59798" lon="-2.53185">
        <ele>2.3489379882812</ele>
        <time>2021-05-09T10:10:57Z</time>
      </trkpt>
      <trkpt lat="48.59802" lon="-2.53197">
        <ele>3.4039306640625</ele>
        <time>2021-05-09T10:11:03Z</time>
      </trkpt>
      <trkpt lat="48.59802" lon="-2.53209">
        <ele>4.6046752929688</ele>
        <time>2021-05-09T10:11:09Z</time>
      </trkpt>
      <trkpt lat="48.59802" lon="-2.5322">
        <ele>5.42333984375</ele>
        <time>2021-05-09T10:11:17Z</time>
      </trkpt>
      <trkpt lat="48.59802" lon="-2.53233">
        <ele>4.6910400390625</ele>
        <time>2021-05-09T10:11:23Z</time>
      </trkpt>
      <trkpt lat="48.59802" lon="-2.53244">
        <ele>6.0391845703125</ele>
        <time>2021-05-09T10:11:28Z</time>
      </trkpt>
      <trkpt lat="48.59803" lon="-2.53257">
        <ele>4.9945678710938</ele>
        <time>2021-05-09T10:11:35Z</time>
      </trkpt>
      <trkpt lat="48.59801" lon="-2.5327">
        <ele>3.3753051757812</ele>
        <time>2021-05-09T10:11:44Z</time>
      </trkpt>
      <trkpt lat="48.598" lon="-2.53283">
        <ele>2.6095581054688</ele>
        <time>2021-05-09T10:11:52Z</time>
      </trkpt>
      <trkpt lat="48.59798" lon="-2.53294">
        <ele>0.4674072265625</ele>
        <time>2021-05-09T10:12:00Z</time>
      </trkpt>
      <trkpt lat="48.59791" lon="-2.53302">
        <ele>-0.3487548828125</ele>
        <time>2021-05-09T10:12:07Z</time>
      </trkpt>
      <trkpt lat="48.59789" lon="-2.53314">
        <ele>0.83892822265625</ele>
        <time>2021-05-09T10:12:14Z</time>
      </trkpt>
      <trkpt lat="48.59785" lon="-2.53325">
        <ele>-1.7779541015625</ele>
        <time>2021-05-09T10:12:21Z</time>
      </trkpt>
      <trkpt lat="48.59781" lon="-2.53336">
        <ele>-2.3168334960938</ele>
        <time>2021-05-09T10:12:29Z</time>
      </trkpt>
      <trkpt lat="48.59779" lon="-2.53348">
        <ele>0.4132080078125</ele>
        <time>2021-05-09T10:12:36Z</time>
      </trkpt>
      <trkpt lat="48.59776" lon="-2.53361">
        <ele>-1.8836669921875</ele>
        <time>2021-05-09T10:12:53Z</time>
      </trkpt>
      <trkpt lat="48.59773" lon="-2.53373">
        <ele>-0.3868408203125</ele>
        <time>2021-05-09T10:13:00Z</time>
      </trkpt>
      <trkpt lat="48.59769" lon="-2.53383">
        <ele>-0.78936767578125</ele>
        <time>2021-05-09T10:13:07Z</time>
      </trkpt>
      <trkpt lat="48.59766" lon="-2.53394">
        <ele>-0.82073974609375</ele>
        <time>2021-05-09T10:13:16Z</time>
      </trkpt>
      <trkpt lat="48.59764" lon="-2.53407">
        <ele>-0.17913818359375</ele>
        <time>2021-05-09T10:13:24Z</time>
      </trkpt>
      <trkpt lat="48.59762" lon="-2.5342">
        <ele>-0.1395263671875</ele>
        <time>2021-05-09T10:13:31Z</time>
      </trkpt>
      <trkpt lat="48.59758" lon="-2.5343">
        <ele>1.67236328125</ele>
        <time>2021-05-09T10:13:56Z</time>
      </trkpt>
      <trkpt lat="48.59756" lon="-2.53443">
        <ele>-0.56903076171875</ele>
        <time>2021-05-09T10:14:04Z</time>
      </trkpt>
      <trkpt lat="48.59754" lon="-2.53455">
        <ele>2.0127563476562</ele>
        <time>2021-05-09T10:14:11Z</time>
      </trkpt>
      <trkpt lat="48.59752" lon="-2.53468">
        <ele>2.22265625</ele>
        <time>2021-05-09T10:14:18Z</time>
      </trkpt>
      <trkpt lat="48.5975" lon="-2.5348">
        <ele>1.8534545898438</ele>
        <time>2021-05-09T10:14:30Z</time>
      </trkpt>
      <trkpt lat="48.59748" lon="-2.53492">
        <ele>1.2191162109375</ele>
        <time>2021-05-09T10:14:37Z</time>
      </trkpt>
      <trkpt lat="48.59748" lon="-2.53506">
        <ele>2.6547241210938</ele>
        <time>2021-05-09T10:14:44Z</time>
      </trkpt>
      <trkpt lat="48.59747" lon="-2.53518">
        <ele>2.790771484375</ele>
        <time>2021-05-09T10:14:49Z</time>
      </trkpt>
      <trkpt lat="48.59745" lon="-2.53531">
        <ele>3.4482421875</ele>
        <time>2021-05-09T10:14:56Z</time>
      </trkpt>
      <trkpt lat="48.59743" lon="-2.53543">
        <ele>2.2052612304688</ele>
        <time>2021-05-09T10:15:03Z</time>
      </trkpt>
      <trkpt lat="48.5974" lon="-2.53554">
        <ele>2.4583129882812</ele>
        <time>2021-05-09T10:15:10Z</time>
      </trkpt>
      <trkpt lat="48.59738" lon="-2.53565">
        <ele>1.4002685546875</ele>
        <time>2021-05-09T10:15:17Z</time>
      </trkpt>
      <trkpt lat="48.59735" lon="-2.53578">
        <ele>1.4087524414062</ele>
        <time>2021-05-09T10:15:25Z</time>
      </trkpt>
      <trkpt lat="48.59734" lon="-2.53589">
        <ele>0.77239990234375</ele>
        <time>2021-05-09T10:15:32Z</time>
      </trkpt>
      <trkpt lat="48.59731" lon="-2.536">
        <ele>2.388427734375</ele>
        <time>2021-05-09T10:15:38Z</time>
      </trkpt>
      <trkpt lat="48.59729" lon="-2.5361">
        <ele>1.8765258789062</ele>
        <time>2021-05-09T10:15:45Z</time>
      </trkpt>
      <trkpt lat="48.59727" lon="-2.53623">
        <ele>3.4800415039062</ele>
        <time>2021-05-09T10:15:50Z</time>
      </trkpt>
      <trkpt lat="48.59724" lon="-2.53634">
        <ele>3.703369140625</ele>
        <time>2021-05-09T10:15:57Z</time>
      </trkpt>
      <trkpt lat="48.59721" lon="-2.53646">
        <ele>2.6533203125</ele>
        <time>2021-05-09T10:16:04Z</time>
      </trkpt>
      <trkpt lat="48.59719" lon="-2.53659">
        <ele>3.17236328125</ele>
        <time>2021-05-09T10:16:11Z</time>
      </trkpt>
      <trkpt lat="48.59717" lon="-2.53671">
        <ele>3.1702880859375</ele>
        <time>2021-05-09T10:16:18Z</time>
      </trkpt>
      <trkpt lat="48.59715" lon="-2.53682">
        <ele>3.6029052734375</ele>
        <time>2021-05-09T10:16:25Z</time>
      </trkpt>
      <trkpt lat="48.59713" lon="-2.53695">
        <ele>3.0921630859375</ele>
        <time>2021-05-09T10:16:32Z</time>
      </trkpt>
      <trkpt lat="48.5971" lon="-2.53707">
        <ele>2.5639038085938</ele>
        <time>2021-05-09T10:16:38Z</time>
      </trkpt>
      <trkpt lat="48.59707" lon="-2.53717">
        <ele>3.673583984375</ele>
        <time>2021-05-09T10:16:44Z</time>
      </trkpt>
      <trkpt lat="48.59701" lon="-2.53727">
        <ele>3.3457641601562</ele>
        <time>2021-05-09T10:16:52Z</time>
      </trkpt>
      <trkpt lat="48.59693" lon="-2.53723">
        <ele>4.9967041015625</ele>
        <time>2021-05-09T10:16:57Z</time>
      </trkpt>
      <trkpt lat="48.59684" lon="-2.53721">
        <ele>6.9633178710938</ele>
        <time>2021-05-09T10:17:04Z</time>
      </trkpt>
      <trkpt lat="48.59676" lon="-2.53724">
        <ele>6.5762939453125</ele>
        <time>2021-05-09T10:17:17Z</time>
      </trkpt>
      <trkpt lat="48.59669" lon="-2.53729">
        <ele>9.2422485351562</ele>
        <time>2021-05-09T10:17:25Z</time>
      </trkpt>
      <trkpt lat="48.5966" lon="-2.53728">
        <ele>11.426513671875</ele>
        <time>2021-05-09T10:17:32Z</time>
      </trkpt>
      <trkpt lat="48.59653" lon="-2.53732">
        <ele>12.6259765625</ele>
        <time>2021-05-09T10:17:40Z</time>
      </trkpt>
      <trkpt lat="48.59645" lon="-2.53735">
        <ele>13.381103515625</ele>
        <time>2021-05-09T10:17:47Z</time>
      </trkpt>
      <trkpt lat="48.59637" lon="-2.5374">
        <ele>13.94775390625</ele>
        <time>2021-05-09T10:17:55Z</time>
      </trkpt>
      <trkpt lat="48.59629" lon="-2.53739">
        <ele>15.252197265625</ele>
        <time>2021-05-09T10:18:02Z</time>
      </trkpt>
      <trkpt lat="48.5962" lon="-2.53737">
        <ele>14.426940917969</ele>
        <time>2021-05-09T10:18:13Z</time>
      </trkpt>
      <trkpt lat="48.5962" lon="-2.53742">
        <ele>15.268188476562</ele>
        <time>2021-05-09T10:19:02Z</time>
      </trkpt>
      <trkpt lat="48.5962" lon="-2.53742">
        <ele>15.268188476562</ele>
        <time>2021-05-09T10:19:02Z</time>
      </trkpt>
    </trkseg>
  </trk>
</gpx>